1000 dernières valeurs brutes
Date Temp Humidity Gust Pressure Rain
13 avril 18:27 25.9°C 44% 0.0 km/h NNE 1023.4 hPa 0 mm
13 avril 18:26 25.8°C 44% 0.0 km/h ENE 1023.4 hPa 0 mm
13 avril 18:25 25.9°C 43% 0.0 km/h NE 1023.4 hPa 0 mm
13 avril 18:24 26.0°C 43% 0.0 km/h NNE 1023.4 hPa 0 mm
13 avril 18:23 26.0°C 42% 0.0 km/h NE 1023.4 hPa 0 mm
13 avril 18:22 25.8°C 43% 0.0 km/h NE 1023.4 hPa 0 mm
13 avril 18:21 25.8°C 43% 0.0 km/h NE 1023.4 hPa 0 mm
13 avril 18:20 26.0°C 43% 0.0 km/h NNE 1023.4 hPa 0 mm
13 avril 18:19 26.0°C 43% 0.0 km/h NNE 1023.4 hPa 0 mm
13 avril 18:18 26.1°C 43% 0.0 km/h NNE 1023.4 hPa 0 mm
13 avril 18:17 26.1°C 43% 0.0 km/h NE 1023.4 hPa 0 mm
13 avril 18:16 26.1°C 43% 0.0 km/h NNE 1023.4 hPa 0 mm
13 avril 18:15 26.1°C 43% 0.0 km/h ENE 1023.4 hPa 0 mm
13 avril 18:14 25.8°C 42% 0.0 km/h NE 1023.5 hPa 0 mm
13 avril 18:13 26.0°C 43% 0.0 km/h NNE 1023.5 hPa 0 mm
13 avril 18:12 26.1°C 43% 0.0 km/h NE 1023.5 hPa 0 mm
13 avril 18:11 26.3°C 43% 0.0 km/h NNE 1023.4 hPa 0 mm
13 avril 18:10 26.3°C 43% 0.0 km/h NNE 1023.5 hPa 0 mm
13 avril 18:09 26.0°C 44% 0.0 km/h NNE 1023.4 hPa 0 mm
13 avril 18:08 26.0°C 44% 0.0 km/h NNE 1023.4 hPa 0 mm
13 avril 18:07 26.0°C 44% 0.0 km/h NE 1023.5 hPa 0 mm
13 avril 18:06 26.0°C 44% 0.0 km/h NNE 1023.5 hPa 0 mm
13 avril 18:05 25.9°C 44% 0.0 km/h NE 1023.5 hPa 0 mm
13 avril 18:04 25.9°C 44% 0.0 km/h NE 1023.5 hPa 0 mm
13 avril 18:03 25.9°C 44% 0.0 km/h NNE 1023.5 hPa 0 mm
13 avril 18:02 26.0°C 45% 0.0 km/h NE 1023.5 hPa 0 mm
13 avril 18:01 26.0°C 45% 0.0 km/h NNE 1023.5 hPa 0 mm
13 avril 18:00 26.1°C 45% 0.0 km/h NNE 1023.5 hPa 0 mm
13 avril 17:59 26.1°C 45% 0.0 km/h NNE 1023.5 hPa 0 mm
13 avril 17:58 26.3°C 46% 0.0 km/h NNE 1023.5 hPa 0 mm
13 avril 17:57 26.3°C 46% 0.0 km/h NE 1023.5 hPa 0 mm
13 avril 17:56 26.0°C 44% 0.0 km/h E 1023.5 hPa 0 mm
13 avril 17:55 26.0°C 44% 0.0 km/h E 1023.5 hPa 0 mm
13 avril 17:54 26.0°C 44% 0.0 km/h SE 1023.5 hPa 0 mm
13 avril 17:53 26.0°C 44% 0.0 km/h S 1023.5 hPa 0 mm
13 avril 17:52 26.0°C 44% 0.0 km/h ESE 1023.5 hPa 0 mm
13 avril 17:51 26.0°C 44% 0.0 km/h ESE 1023.6 hPa 0 mm
13 avril 17:50 26.2°C 45% 0.0 km/h NNE 1023.5 hPa 0 mm
13 avril 17:49 26.2°C 45% 0.0 km/h NE 1023.5 hPa 0 mm
13 avril 17:48 26.2°C 45% 0.0 km/h SSE 1023.5 hPa 0 mm
13 avril 17:47 25.9°C 45% 0.0 km/h ENE 1023.6 hPa 0 mm
13 avril 17:46 25.9°C 45% 0.0 km/h NE 1023.6 hPa 0 mm
13 avril 17:45 25.9°C 45% 0.0 km/h NNE 1023.6 hPa 0 mm
13 avril 17:44 25.9°C 45% 0.0 km/h NNE 1023.6 hPa 0 mm
13 avril 17:43 25.9°C 45% 0.0 km/h NE 1023.6 hPa 0 mm
13 avril 17:42 25.9°C 45% 0.0 km/h NNE 1023.6 hPa 0 mm
13 avril 17:41 25.9°C 45% 0.0 km/h NNE 1023.6 hPa 0 mm
13 avril 17:40 25.9°C 45% 0.0 km/h NNE 1023.6 hPa 0 mm
13 avril 17:39 25.9°C 45% 0.0 km/h NE 1023.6 hPa 0 mm
13 avril 17:38 25.9°C 45% 0.0 km/h ENE 1023.6 hPa 0 mm
13 avril 17:37 25.9°C 45% 0.0 km/h ENE 1023.6 hPa 0 mm
13 avril 17:36 26.3°C 48% 0.0 km/h NE 1023.6 hPa 0 mm
13 avril 17:35 26.3°C 48% 0.0 km/h NNE 1023.7 hPa 0 mm
13 avril 17:34 26.3°C 48% 0.0 km/h NNE 1023.6 hPa 0 mm
13 avril 17:33 26.3°C 48% 0.0 km/h NE 1023.7 hPa 0 mm
13 avril 17:32 26.3°C 48% 0.0 km/h NNE 1023.6 hPa 0 mm
13 avril 17:31 26.4°C 47% 0.0 km/h NNE 1023.7 hPa 0 mm
13 avril 17:30 26.4°C 47% 0.0 km/h SO 1023.6 hPa 0 mm
13 avril 17:29 26.4°C 47% 0.0 km/h NNE 1023.7 hPa 0 mm
13 avril 17:28 26.4°C 47% 0.0 km/h NNE 1023.7 hPa 0 mm
13 avril 17:27 26.4°C 47% 0.0 km/h NNE 1023.7 hPa 0 mm
13 avril 17:26 26.6°C 48% 0.0 km/h ESE 1023.6 hPa 0 mm
13 avril 17:25 26.6°C 48% 0.0 km/h SSE 1023.7 hPa 0 mm
13 avril 17:24 26.0°C 45% 0.0 km/h SSE 1023.7 hPa 0 mm
13 avril 17:23 26.0°C 45% 0.0 km/h SSE 1023.6 hPa 0 mm
13 avril 17:22 26.0°C 45% 0.0 km/h ESE 1023.7 hPa 0 mm
13 avril 17:21 26.0°C 45% 0.0 km/h SE 1023.7 hPa 0 mm
13 avril 17:20 26.0°C 45% 0.0 km/h E 1023.7 hPa 0 mm
13 avril 17:19 26.0°C 45% 0.0 km/h SSO 1023.7 hPa 0 mm
13 avril 17:18 26.0°C 45% 0.0 km/h SSE 1023.7 hPa 0 mm
13 avril 17:17 26.0°C 45% 0.0 km/h SE 1023.7 hPa 0 mm
13 avril 17:16 26.0°C 45% 0.0 km/h ENE 1023.7 hPa 0 mm
13 avril 17:15 26.0°C 45% 0.0 km/h NE 1023.7 hPa 0 mm
13 avril 17:14 26.0°C 45% 0.0 km/h NE 1023.7 hPa 0 mm
13 avril 17:13 26.0°C 45% 0.0 km/h NE 1023.7 hPa 0 mm
13 avril 17:12 26.2°C 48% 0.0 km/h ENE 1023.7 hPa 0 mm
13 avril 17:11 25.6°C 46% 0.0 km/h NE 1023.7 hPa 0 mm
13 avril 17:10 25.6°C 46% 0.0 km/h NNE 1023.7 hPa 0 mm
13 avril 17:09 25.4°C 46% 0.0 km/h N 1023.7 hPa 0 mm
13 avril 17:08 25.4°C 46% 0.0 km/h NNE 1023.7 hPa 0 mm
13 avril 17:07 25.4°C 46% 0.0 km/h NNE 1023.7 hPa 0 mm
13 avril 17:06 25.4°C 46% 0.0 km/h N 1023.7 hPa 0 mm
13 avril 17:05 25.4°C 46% 0.0 km/h NNE 1023.8 hPa 0 mm
13 avril 17:04 25.3°C 47% 0.0 km/h NNE 1023.9 hPa 0 mm
13 avril 17:03 25.3°C 47% 0.0 km/h NNE 1024.0 hPa 0 mm
13 avril 17:02 25.3°C 47% 0.0 km/h NNE 1023.8 hPa 0 mm
13 avril 17:01 25.3°C 47% 0.0 km/h NNE 1023.8 hPa 0 mm
13 avril 17:00 25.5°C 46% 0.0 km/h NNE 1023.8 hPa 0 mm
13 avril 16:59 25.5°C 46% 0.0 km/h NNE 1023.9 hPa 0 mm
13 avril 16:58 25.8°C 49% 0.0 km/h N 1023.9 hPa 0 mm
13 avril 16:57 25.8°C 49% 0.0 km/h NNE 1023.9 hPa 0 mm
13 avril 16:56 25.8°C 49% 0.0 km/h NNE 1023.9 hPa 0 mm
13 avril 16:55 25.7°C 48% 0.0 km/h ENE 1023.8 hPa 0 mm
13 avril 16:54 25.9°C 47% 0.0 km/h NNE 1023.9 hPa 0 mm
13 avril 16:53 25.6°C 49% 0.0 km/h NNE 1023.8 hPa 0 mm
13 avril 16:52 25.6°C 49% 0.0 km/h NE 1023.9 hPa 0 mm
13 avril 16:51 25.6°C 49% 0.0 km/h E 1024.0 hPa 0 mm
13 avril 16:50 25.6°C 51% 0.0 km/h SE 1024.0 hPa 0 mm
13 avril 16:49 25.6°C 51% 0.0 km/h ESE 1024.0 hPa 0 mm
13 avril 16:48 25.4°C 50% 0.0 km/h E 1024.0 hPa 0 mm
13 avril 16:47 25.4°C 50% 0.0 km/h ENE 1023.8 hPa 0 mm
13 avril 16:46 25.4°C 48% 0.0 km/h NNE 1023.8 hPa 0 mm
13 avril 16:45 25.6°C 47% 0.0 km/h NE 1023.8 hPa 0 mm
13 avril 16:44 25.6°C 47% 0.0 km/h NE 1023.8 hPa 0 mm
13 avril 16:43 25.6°C 47% 0.0 km/h N 1023.8 hPa 0 mm
13 avril 16:42 25.4°C 49% 0.0 km/h NE 1023.8 hPa 0 mm
13 avril 16:41 25.4°C 49% 0.0 km/h SE 1023.9 hPa 0 mm
13 avril 16:40 25.2°C 51% 0.0 km/h SE 1023.9 hPa 0 mm
13 avril 16:39 25.2°C 51% 0.0 km/h E 1023.9 hPa 0 mm
13 avril 16:38 25.0°C 48% 0.0 km/h ESE 1023.9 hPa 0 mm
13 avril 16:37 25.0°C 48% 0.0 km/h NE 1023.9 hPa 0 mm
13 avril 16:36 24.9°C 49% 0.0 km/h NNE 1023.9 hPa 0 mm
13 avril 16:35 24.9°C 49% 0.0 km/h NNE 1024.0 hPa 0 mm
13 avril 16:34 24.9°C 49% 0.0 km/h ENE 1024.0 hPa 0 mm
13 avril 16:33 24.9°C 49% 0.0 km/h ENE 1024.0 hPa 0 mm
13 avril 16:32 25.2°C 48% 0.0 km/h NNE 1024.0 hPa 0 mm
13 avril 16:31 25.2°C 48% 0.0 km/h NNE 1024.0 hPa 0 mm
13 avril 16:30 25.2°C 48% 0.0 km/h NNE 1024.0 hPa 0 mm
13 avril 16:29 25.2°C 48% 0.0 km/h N 1024.0 hPa 0 mm
13 avril 16:28 25.2°C 48% 0.0 km/h NNE 1024.0 hPa 0 mm
13 avril 16:27 25.2°C 48% 0.0 km/h ENE 1024.0 hPa 0 mm
13 avril 16:26 25.1°C 47% 0.0 km/h NNE 1024.0 hPa 0 mm
13 avril 16:25 25.1°C 47% 0.0 km/h N 1024.1 hPa 0 mm
13 avril 16:24 25.4°C 49% 0.0 km/h NNE 1024.1 hPa 0 mm
13 avril 16:23 25.4°C 49% 0.0 km/h NNE 1024.1 hPa 0 mm
13 avril 16:22 25.4°C 49% 0.0 km/h NNE 1024.1 hPa 0 mm
13 avril 16:21 25.4°C 49% 0.0 km/h NNE 1024.1 hPa 0 mm
13 avril 16:20 25.4°C 49% 0.0 km/h NNE 1024.1 hPa 0 mm
13 avril 16:19 25.0°C 48% 0.0 km/h NE 1024.1 hPa 0 mm
13 avril 16:18 25.0°C 48% 0.0 km/h NNE 1024.2 hPa 0 mm
13 avril 16:17 25.0°C 49% 0.0 km/h NNE 1024.1 hPa 0 mm
13 avril 16:16 24.7°C 51% 0.0 km/h NNE 1024.1 hPa 0 mm
13 avril 16:15 24.7°C 51% 0.0 km/h NE 1024.1 hPa 0 mm
13 avril 16:14 24.7°C 51% 0.0 km/h NNE 1024.2 hPa 0 mm
13 avril 16:13 24.7°C 51% 0.0 km/h ENE 1024.1 hPa 0 mm
13 avril 16:12 24.7°C 51% 0.0 km/h ENE 1024.2 hPa 0 mm
13 avril 16:11 24.7°C 51% 0.0 km/h NE 1024.2 hPa 0 mm
13 avril 16:10 24.7°C 51% 0.0 km/h E 1024.2 hPa 0 mm
13 avril 16:09 24.7°C 51% 0.0 km/h SE 1024.2 hPa 0 mm
13 avril 16:08 24.8°C 52% 0.0 km/h NE 1024.3 hPa 0 mm
13 avril 16:07 24.8°C 52% 0.0 km/h ENE 1024.3 hPa 0 mm
13 avril 16:06 24.5°C 52% 0.0 km/h NE 1024.3 hPa 0 mm
13 avril 16:05 24.5°C 52% 0.0 km/h NNE 1024.3 hPa 0 mm
13 avril 16:04 24.5°C 52% 0.0 km/h N 1024.3 hPa 0 mm
13 avril 16:03 24.5°C 52% 0.0 km/h ENE 1024.4 hPa 0 mm
13 avril 16:02 24.7°C 50% 0.0 km/h NNE 1024.4 hPa 0 mm
13 avril 16:01 24.7°C 50% 0.0 km/h ENE 1024.4 hPa 0 mm
13 avril 16:00 24.7°C 50% 0.0 km/h S 1024.4 hPa 0 mm
13 avril 15:59 24.7°C 50% 0.0 km/h S 1024.4 hPa 0 mm
13 avril 15:58 24.5°C 49% 0.0 km/h SSE 1024.5 hPa 0 mm
13 avril 15:57 24.5°C 49% 0.0 km/h ENE 1024.5 hPa 0 mm
13 avril 15:56 24.5°C 49% 0.0 km/h ENE 1024.5 hPa 0 mm
13 avril 15:55 24.5°C 49% 0.0 km/h NNE 1024.5 hPa 0 mm
13 avril 15:54 24.5°C 49% 0.0 km/h ENE 1024.5 hPa 0 mm
13 avril 15:53 24.5°C 49% 0.0 km/h NE 1024.5 hPa 0 mm
13 avril 15:52 24.5°C 49% 0.0 km/h NNE 1024.5 hPa 0 mm
13 avril 15:51 24.5°C 49% 0.0 km/h NNE 1024.5 hPa 0 mm
13 avril 15:50 24.5°C 49% 0.0 km/h NNE 1024.6 hPa 0 mm
13 avril 15:49 24.5°C 49% 0.0 km/h NNE 1024.6 hPa 0 mm
13 avril 15:48 24.5°C 49% 0.0 km/h NNE 1024.6 hPa 0 mm
13 avril 15:47 24.5°C 49% 0.0 km/h NNE 1024.6 hPa 0 mm
13 avril 15:46 24.5°C 49% 0.0 km/h SE 1024.7 hPa 0 mm
13 avril 15:45 24.5°C 49% 0.0 km/h NNE 1024.7 hPa 0 mm
13 avril 15:44 24.5°C 49% 0.0 km/h NNE 1024.7 hPa 0 mm
13 avril 15:43 24.5°C 49% 0.0 km/h NNE 1024.7 hPa 0 mm
13 avril 15:42 24.5°C 49% 0.0 km/h NE 1024.7 hPa 0 mm
13 avril 15:41 24.5°C 49% 0.0 km/h NNE 1024.7 hPa 0 mm
13 avril 15:40 24.5°C 49% 0.0 km/h NE 1024.8 hPa 0 mm
13 avril 15:39 24.5°C 49% 0.0 km/h ESE 1024.8 hPa 0 mm
13 avril 15:38 24.5°C 49% 0.0 km/h E 1024.9 hPa 0 mm
13 avril 15:37 24.5°C 49% 0.0 km/h SE 1024.8 hPa 0 mm
13 avril 15:36 24.5°C 49% 0.0 km/h E 1024.9 hPa 0 mm
13 avril 15:35 24.5°C 49% 0.0 km/h SE 1024.8 hPa 0 mm
13 avril 15:34 24.5°C 49% 0.0 km/h E 1024.8 hPa 0 mm
13 avril 15:33 24.4°C 49% 0.0 km/h E 1024.9 hPa 0 mm
13 avril 15:32 24.2°C 49% 0.0 km/h ENE 1024.9 hPa 0 mm
13 avril 15:31 24.1°C 49% 0.0 km/h NNE 1024.9 hPa 0 mm
13 avril 15:30 24.1°C 49% 0.0 km/h NNE 1024.9 hPa 0 mm
13 avril 15:29 24.8°C 50% 0.0 km/h NE 1024.9 hPa 0 mm
13 avril 15:28 24.8°C 50% 0.0 km/h ENE 1024.9 hPa 0 mm
13 avril 15:27 24.8°C 50% 0.0 km/h ENE 1025.0 hPa 0 mm
13 avril 15:26 24.5°C 51% 0.0 km/h ENE 1024.9 hPa 0 mm
13 avril 15:25 24.5°C 51% 0.0 km/h NE 1024.9 hPa 0 mm
13 avril 15:24 24.5°C 51% 0.0 km/h NNE 1025.0 hPa 0 mm
13 avril 15:23 24.5°C 51% 0.0 km/h NE 1025.0 hPa 0 mm
13 avril 15:22 24.5°C 51% 0.0 km/h NE 1025.1 hPa 0 mm
13 avril 15:21 24.5°C 51% 0.0 km/h SE 1025.0 hPa 0 mm
13 avril 15:20 24.5°C 51% 0.0 km/h NE 1025.0 hPa 0 mm
13 avril 15:19 24.5°C 51% 0.0 km/h NNE 1025.1 hPa 0 mm
13 avril 15:18 24.5°C 51% 0.0 km/h S 1025.1 hPa 0 mm
13 avril 15:17 24.5°C 51% 0.0 km/h SSE 1025.1 hPa 0 mm
13 avril 15:16 24.5°C 51% 0.0 km/h SSE 1025.1 hPa 0 mm
13 avril 15:15 24.5°C 51% 0.0 km/h SE 1025.1 hPa 0 mm
13 avril 15:14 24.5°C 51% 0.0 km/h ENE 1025.1 hPa 0 mm
13 avril 15:13 24.5°C 51% 0.0 km/h SO 1025.2 hPa 0 mm
13 avril 15:12 24.0°C 50% 0.0 km/h E 1025.2 hPa 0 mm
13 avril 15:11 24.0°C 50% 0.0 km/h E 1025.3 hPa 0 mm
13 avril 15:10 24.0°C 50% 0.0 km/h SSE 1025.4 hPa 0 mm
13 avril 15:09 24.0°C 50% 0.0 km/h NE 1025.3 hPa 0 mm
13 avril 15:08 24.1°C 51% 0.0 km/h E 1025.3 hPa 0 mm
13 avril 15:07 24.1°C 51% 0.0 km/h NNE 1025.3 hPa 0 mm
13 avril 15:06 24.1°C 51% 0.0 km/h NE 1025.3 hPa 0 mm
13 avril 15:05 24.1°C 52% 0.0 km/h NE 1025.3 hPa 0 mm
13 avril 15:04 24.1°C 52% 0.0 km/h ENE 1025.3 hPa 0 mm
13 avril 15:03 24.2°C 52% 0.0 km/h NE 1025.3 hPa 0 mm
13 avril 15:02 24.2°C 52% 0.0 km/h NE 1025.3 hPa 0 mm
13 avril 15:01 24.2°C 52% 0.0 km/h NNE 1025.3 hPa 0 mm
13 avril 15:00 24.2°C 52% 0.0 km/h NNE 1025.3 hPa 0 mm
13 avril 14:59 24.2°C 52% 0.0 km/h NNE 1025.3 hPa 0 mm
13 avril 14:58 24.1°C 53% 0.0 km/h NE 1025.4 hPa 0 mm
13 avril 14:57 24.1°C 53% 0.0 km/h NNE 1025.4 hPa 0 mm
13 avril 14:56 24.1°C 53% 0.0 km/h ENE 1025.4 hPa 0 mm
13 avril 14:55 24.1°C 53% 0.0 km/h NE 1025.4 hPa 0 mm
13 avril 14:54 24.1°C 53% 0.0 km/h NNE 1025.4 hPa 0 mm
13 avril 14:53 24.1°C 53% 0.0 km/h ENE 1025.4 hPa 0 mm
13 avril 14:52 24.1°C 53% 0.0 km/h NE 1025.5 hPa 0 mm
13 avril 14:51 24.1°C 53% 0.0 km/h NNE 1025.5 hPa 0 mm
13 avril 14:50 24.1°C 53% 0.0 km/h NNE 1025.5 hPa 0 mm
13 avril 14:49 24.1°C 53% 0.0 km/h NNE 1025.5 hPa 0 mm
13 avril 14:48 24.1°C 53% 0.0 km/h NE 1025.5 hPa 0 mm
13 avril 14:47 23.2°C 57% 0.0 km/h ENE 1025.5 hPa 0 mm
13 avril 14:46 23.2°C 57% 0.0 km/h NE 1025.6 hPa 0 mm
13 avril 14:45 23.2°C 57% 0.0 km/h NE 1025.6 hPa 0 mm
13 avril 14:44 23.2°C 57% 0.0 km/h ESE 1025.6 hPa 0 mm
13 avril 14:43 23.2°C 57% 0.0 km/h ENE 1025.6 hPa 0 mm
13 avril 14:42 23.2°C 57% 0.0 km/h ENE 1025.6 hPa 0 mm
13 avril 14:41 23.2°C 57% 0.0 km/h ESE 1025.6 hPa 0 mm
13 avril 14:40 23.2°C 57% 0.0 km/h NE 1025.6 hPa 0 mm
13 avril 14:39 23.2°C 57% 0.0 km/h NNE 1025.6 hPa 0 mm
13 avril 14:38 23.2°C 57% 0.0 km/h NNE 1025.6 hPa 0 mm
13 avril 14:37 23.2°C 57% 0.0 km/h NE 1025.6 hPa 0 mm
13 avril 14:36 23.2°C 57% 0.0 km/h NNE 1025.6 hPa 0 mm
13 avril 14:35 23.2°C 57% 0.0 km/h N 1025.7 hPa 0 mm
13 avril 14:34 23.2°C 57% 0.0 km/h NNE 1025.6 hPa 0 mm
13 avril 14:33 23.2°C 57% 0.0 km/h NNE 1025.6 hPa 0 mm
13 avril 14:32 23.2°C 57% 0.0 km/h NNE 1025.7 hPa 0 mm
13 avril 14:31 23.2°C 57% 0.0 km/h NE 1025.7 hPa 0 mm
13 avril 14:30 23.2°C 57% 0.0 km/h E 1025.8 hPa 0 mm
13 avril 14:29 23.2°C 57% 0.0 km/h S 1025.8 hPa 0 mm
13 avril 14:28 23.2°C 57% 0.0 km/h ESE 1025.9 hPa 0 mm
13 avril 14:27 22.8°C 55% 0.0 km/h S 1025.9 hPa 0 mm
13 avril 14:26 22.8°C 55% 0.0 km/h S 1025.8 hPa 0 mm
13 avril 14:25 22.8°C 55% 0.0 km/h ESE 1025.8 hPa 0 mm
13 avril 14:24 22.8°C 55% 0.0 km/h S 1025.8 hPa 0 mm
13 avril 14:23 22.8°C 55% 0.0 km/h E 1025.9 hPa 0 mm
13 avril 14:22 22.8°C 55% 0.0 km/h ESE 1025.8 hPa 0 mm
13 avril 14:21 22.8°C 55% 0.0 km/h N 1025.8 hPa 0 mm
13 avril 14:20 22.8°C 55% 0.0 km/h NNE 1025.8 hPa 0 mm
13 avril 14:19 22.8°C 55% 0.0 km/h NNE 1025.8 hPa 0 mm
13 avril 14:18 22.6°C 60% 0.0 km/h NNE 1025.8 hPa 0 mm
13 avril 14:17 22.6°C 60% 0.0 km/h NE 1025.8 hPa 0 mm
13 avril 14:16 22.6°C 60% 0.0 km/h E 1025.9 hPa 0 mm
13 avril 14:15 22.6°C 60% 0.0 km/h E 1026.0 hPa 0 mm
13 avril 14:14 22.4°C 59% 0.0 km/h SSE 1026.0 hPa 0 mm
13 avril 14:13 22.4°C 59% 0.0 km/h ESE 1026.0 hPa 0 mm
13 avril 14:12 22.8°C 58% 0.0 km/h SE 1026.0 hPa 0 mm
13 avril 14:11 22.8°C 58% 0.0 km/h SO 1026.0 hPa 0 mm
13 avril 14:10 22.8°C 58% 0.0 km/h SE 1026.0 hPa 0 mm
13 avril 14:09 23.6°C 58% 0.0 km/h S 1026.0 hPa 0 mm
13 avril 14:08 23.6°C 58% 0.0 km/h ESE 1026.0 hPa 0 mm
13 avril 14:07 23.6°C 58% 0.0 km/h SE 1026.0 hPa 0 mm
13 avril 14:06 24.1°C 60% 0.0 km/h ENE 1026.0 hPa 0 mm
13 avril 14:05 24.1°C 60% 0.0 km/h E 1026.0 hPa 0 mm
13 avril 14:04 24.0°C 56% 0.0 km/h SE 1026.0 hPa 0 mm
13 avril 14:03 24.1°C 56% 0.0 km/h ENE 1025.9 hPa 0 mm
13 avril 14:02 24.1°C 56% 0.0 km/h ENE 1025.9 hPa 0 mm
13 avril 14:01 23.8°C 55% 0.0 km/h NE 1025.9 hPa 0 mm
13 avril 14:00 23.8°C 55% 0.0 km/h ENE 1025.9 hPa 0 mm
13 avril 13:59 23.5°C 55% 0.0 km/h NE 1026.0 hPa 0 mm
13 avril 13:58 23.5°C 55% 0.0 km/h NE 1026.0 hPa 0 mm
13 avril 13:57 23.1°C 55% 0.0 km/h E 1026.0 hPa 0 mm
13 avril 13:56 23.1°C 55% 0.0 km/h E 1026.1 hPa 0 mm
13 avril 13:55 23.0°C 56% 0.0 km/h ENE 1026.1 hPa 0 mm
13 avril 13:54 23.0°C 56% 0.0 km/h ENE 1026.1 hPa 0 mm
13 avril 13:53 22.8°C 56% 0.0 km/h ENE 1026.1 hPa 0 mm
13 avril 13:52 22.7°C 56% 0.0 km/h NE 1026.1 hPa 0 mm
13 avril 13:51 22.7°C 56% 0.0 km/h NNE 1026.1 hPa 0 mm
13 avril 13:50 22.7°C 56% 0.0 km/h NNE 1026.1 hPa 0 mm
13 avril 13:49 22.7°C 56% 0.0 km/h NE 1026.2 hPa 0 mm
13 avril 13:48 22.9°C 58% 0.0 km/h ENE 1026.2 hPa 0 mm
13 avril 13:47 22.9°C 58% 0.0 km/h NNE 1026.2 hPa 0 mm
13 avril 13:46 22.9°C 58% 0.0 km/h E 1026.2 hPa 0 mm
13 avril 13:45 22.8°C 58% 0.0 km/h ENE 1026.3 hPa 0 mm
13 avril 13:44 22.8°C 58% 0.0 km/h NE 1026.4 hPa 0 mm
13 avril 13:43 22.6°C 60% 0.0 km/h E 1026.3 hPa 0 mm
13 avril 13:42 22.6°C 60% 0.0 km/h SE 1026.2 hPa 0 mm
13 avril 13:41 22.6°C 60% 0.0 km/h E 1026.2 hPa 0 mm
13 avril 13:40 22.4°C 58% 0.0 km/h E 1026.2 hPa 0 mm
13 avril 13:39 22.3°C 57% 0.0 km/h E 1026.2 hPa 0 mm
13 avril 13:38 22.3°C 57% 0.0 km/h E 1026.2 hPa 0 mm
13 avril 13:37 22.4°C 55% 0.0 km/h NNE 1026.2 hPa 0 mm
13 avril 13:36 22.6°C 57% 0.0 km/h NNE 1026.3 hPa 0 mm
13 avril 13:35 22.5°C 57% 0.0 km/h NE 1026.3 hPa 0 mm
13 avril 13:34 22.4°C 57% 0.0 km/h N 1026.2 hPa 0 mm
13 avril 13:33 22.1°C 58% 0.0 km/h E 1026.2 hPa 0 mm
13 avril 13:32 22.1°C 56% 0.0 km/h S 1026.3 hPa 0 mm
13 avril 13:31 22.1°C 57% 0.0 km/h NNE 1026.3 hPa 0 mm
13 avril 13:30 22.1°C 56% 0.0 km/h NNE 1026.3 hPa 0 mm
13 avril 13:29 22.1°C 56% 0.0 km/h N 1026.3 hPa 0 mm
13 avril 13:28 22.1°C 58% 0.0 km/h NE 1026.3 hPa 0 mm
13 avril 13:27 22.1°C 58% 0.0 km/h NNE 1026.3 hPa 0 mm
13 avril 13:26 22.0°C 56% 0.0 km/h NNE 1026.3 hPa 0 mm
13 avril 13:25 22.0°C 58% 0.0 km/h NNE 1026.3 hPa 0 mm
13 avril 13:24 21.9°C 57% 0.0 km/h NE 1026.3 hPa 0 mm
13 avril 13:23 22.0°C 57% 0.0 km/h NNE 1026.3 hPa 0 mm
13 avril 13:22 22.0°C 57% 0.0 km/h NNE 1026.4 hPa 0 mm
13 avril 13:21 21.9°C 58% 0.0 km/h NNE 1026.4 hPa 0 mm
13 avril 13:20 21.8°C 58% 0.0 km/h NE 1026.4 hPa 0 mm
13 avril 13:19 21.8°C 58% 0.0 km/h E 1026.4 hPa 0 mm
13 avril 13:18 21.9°C 58% 0.0 km/h ENE 1026.4 hPa 0 mm
13 avril 13:17 22.2°C 57% 0.0 km/h NNE 1026.4 hPa 0 mm
13 avril 13:16 22.2°C 57% 0.0 km/h E 1026.4 hPa 0 mm
13 avril 13:15 22.4°C 59% 0.0 km/h NNE 1026.4 hPa 0 mm
13 avril 13:14 22.2°C 60% 0.0 km/h NE 1026.4 hPa 0 mm
13 avril 13:13 22.0°C 58% 0.0 km/h ENE 1026.5 hPa 0 mm
13 avril 13:12 21.8°C 57% 0.0 km/h NE 1026.5 hPa 0 mm
13 avril 13:11 21.6°C 58% 0.0 km/h NNE 1026.6 hPa 0 mm
13 avril 13:10 21.5°C 57% 0.0 km/h NE 1026.5 hPa 0 mm
13 avril 13:09 21.6°C 57% 0.0 km/h NNE 1026.5 hPa 0 mm
13 avril 13:08 21.8°C 56% 0.0 km/h NNE 1026.5 hPa 0 mm
13 avril 13:07 22.0°C 57% 0.0 km/h E 1026.5 hPa 0 mm
13 avril 13:06 21.8°C 57% 0.0 km/h ENE 1026.6 hPa 0 mm
13 avril 13:05 21.8°C 57% 0.0 km/h NE 1026.7 hPa 0 mm
13 avril 13:04 21.8°C 57% 0.0 km/h NE 1026.8 hPa 0 mm
13 avril 13:03 21.3°C 59% 0.0 km/h ENE 1026.8 hPa 0 mm
13 avril 13:02 21.3°C 59% 0.0 km/h ENE 1026.6 hPa 0 mm
13 avril 13:01 21.4°C 58% 0.0 km/h N 1026.5 hPa 0 mm
13 avril 13:00 21.4°C 58% 0.0 km/h NNE 1026.6 hPa 0 mm
13 avril 12:59 21.4°C 58% 0.0 km/h NE 1026.6 hPa 0 mm
13 avril 12:58 21.3°C 59% 0.0 km/h NNE 1026.6 hPa 0 mm
13 avril 12:57 21.6°C 58% 0.0 km/h NNE 1026.6 hPa 0 mm
13 avril 12:56 21.6°C 58% 0.0 km/h NNE 1026.6 hPa 0 mm
13 avril 12:55 21.6°C 59% 0.0 km/h NNE 1026.6 hPa 0 mm
13 avril 12:54 21.3°C 58% 0.0 km/h NE 1026.6 hPa 0 mm
13 avril 12:53 21.3°C 58% 0.0 km/h NNE 1026.6 hPa 0 mm
13 avril 12:52 21.3°C 58% 0.0 km/h NE 1026.6 hPa 0 mm
13 avril 12:51 21.5°C 58% 0.0 km/h NNE 1026.6 hPa 0 mm
13 avril 12:50 21.7°C 58% 0.0 km/h NNE 1026.6 hPa 0 mm
13 avril 12:49 21.8°C 59% 0.0 km/h NNE 1026.6 hPa 0 mm
13 avril 12:48 21.5°C 57% 0.0 km/h ENE 1026.7 hPa 0 mm
13 avril 12:47 21.5°C 59% 0.0 km/h E 1026.7 hPa 0 mm
13 avril 12:46 21.5°C 58% 0.0 km/h NE 1026.7 hPa 0 mm
13 avril 12:45 21.5°C 58% 0.0 km/h NE 1026.7 hPa 0 mm
13 avril 12:44 21.4°C 59% 0.0 km/h NE 1026.7 hPa 0 mm
13 avril 12:43 21.3°C 60% 0.0 km/h NE 1026.7 hPa 0 mm
13 avril 12:42 21.3°C 60% 0.0 km/h NNE 1026.7 hPa 0 mm
13 avril 12:41 21.3°C 60% 0.0 km/h NE 1026.7 hPa 0 mm
13 avril 12:40 21.3°C 60% 0.0 km/h NE 1026.7 hPa 0 mm
13 avril 12:39 21.6°C 60% 0.0 km/h NNE 1026.7 hPa 0 mm
13 avril 12:38 21.6°C 60% 0.0 km/h NNE 1026.7 hPa 0 mm
13 avril 12:37 21.6°C 58% 0.0 km/h NNE 1026.7 hPa 0 mm
13 avril 12:36 21.6°C 58% 0.0 km/h ENE 1026.8 hPa 0 mm
13 avril 12:35 21.4°C 60% 0.0 km/h E 1026.9 hPa 0 mm
13 avril 12:34 21.3°C 59% 0.0 km/h NE 1026.9 hPa 0 mm
13 avril 12:33 21.3°C 59% 0.0 km/h NNE 1026.9 hPa 0 mm
13 avril 12:32 21.1°C 61% 0.0 km/h NE 1026.8 hPa 0 mm
13 avril 12:31 21.1°C 62% 0.0 km/h NNE 1026.8 hPa 0 mm
13 avril 12:30 21.2°C 64% 0.0 km/h NNE 1026.8 hPa 0 mm
13 avril 12:29 21.0°C 63% 0.0 km/h NE 1026.8 hPa 0 mm
13 avril 12:28 20.6°C 61% 0.0 km/h ESE 1026.8 hPa 0 mm
13 avril 12:27 20.5°C 61% 0.0 km/h NE 1026.8 hPa 0 mm
13 avril 12:26 20.5°C 61% 0.0 km/h ENE 1026.8 hPa 0 mm
13 avril 12:25 20.5°C 61% 0.0 km/h NE 1026.8 hPa 0 mm
13 avril 12:24 20.6°C 61% 0.0 km/h NE 1026.8 hPa 0 mm
13 avril 12:23 20.5°C 62% 0.0 km/h NNE 1026.8 hPa 0 mm
13 avril 12:22 20.7°C 63% 0.0 km/h N 1026.9 hPa 0 mm
13 avril 12:21 20.9°C 65% 0.0 km/h NNE 1026.9 hPa 0 mm
13 avril 12:20 20.9°C 65% 0.0 km/h NNE 1026.9 hPa 0 mm
13 avril 12:19 20.8°C 65% 0.0 km/h NNE 1026.9 hPa 0 mm
13 avril 12:18 20.9°C 64% 0.0 km/h ENE 1026.9 hPa 0 mm
13 avril 12:17 20.8°C 66% 0.0 km/h ESE 1027.0 hPa 0 mm
13 avril 12:16 20.4°C 62% 0.0 km/h NE 1027.0 hPa 0 mm
13 avril 12:15 20.4°C 62% 0.0 km/h NNE 1027.0 hPa 0 mm
13 avril 12:14 20.3°C 62% 0.0 km/h E 1027.0 hPa 0 mm
13 avril 12:13 20.4°C 62% 0.0 km/h NE 1027.0 hPa 0 mm
13 avril 12:12 20.1°C 63% 0.0 km/h NE 1027.1 hPa 0 mm
13 avril 12:11 20.1°C 63% 0.0 km/h NE 1027.2 hPa 0 mm
13 avril 12:10 20.1°C 63% 0.0 km/h NNE 1027.2 hPa 0 mm
13 avril 12:09 20.0°C 64% 0.0 km/h NNE 1027.2 hPa 0 mm
13 avril 12:08 20.0°C 64% 0.0 km/h NE 1027.4 hPa 0 mm
13 avril 12:07 20.1°C 63% 0.0 km/h NE 1027.4 hPa 0 mm
13 avril 12:06 20.3°C 64% 0.0 km/h NNE 1027.3 hPa 0 mm
13 avril 12:05 20.2°C 65% 0.0 km/h NE 1027.1 hPa 0 mm
13 avril 12:04 20.1°C 64% 0.0 km/h NE 1027.1 hPa 0 mm
13 avril 12:03 20.2°C 68% 0.0 km/h NNE 1027.0 hPa 0 mm
13 avril 12:02 19.8°C 67% 0.0 km/h NE 1027.1 hPa 0 mm
13 avril 12:01 19.8°C 67% 0.0 km/h SE 1027.2 hPa 0 mm
13 avril 12:00 19.8°C 67% 0.0 km/h NE 1027.3 hPa 0 mm
13 avril 11:59 19.5°C 69% 0.0 km/h ESE 1027.2 hPa 0 mm
13 avril 11:58 19.5°C 69% 0.0 km/h ENE 1027.3 hPa 0 mm
13 avril 11:57 19.3°C 66% 0.0 km/h N 1027.2 hPa 0 mm
13 avril 11:56 19.3°C 66% 0.0 km/h NE 1027.3 hPa 0 mm
13 avril 11:55 19.3°C 66% 0.0 km/h NE 1027.4 hPa 0 mm
13 avril 11:54 19.3°C 66% 0.0 km/h N 1027.2 hPa 0 mm
13 avril 11:53 19.3°C 66% 0.0 km/h NNE 1027.1 hPa 0 mm
13 avril 11:52 19.4°C 67% 0.0 km/h NNE 1027.1 hPa 0 mm
13 avril 11:51 19.4°C 67% 0.0 km/h NNE 1027.2 hPa 0 mm
13 avril 11:50 19.4°C 69% 0.0 km/h ENE 1027.2 hPa 0 mm
13 avril 11:49 19.3°C 66% 0.0 km/h SE 1027.2 hPa 0 mm
13 avril 11:48 19.3°C 66% 0.0 km/h NNE 1027.2 hPa 0 mm
13 avril 11:47 19.7°C 67% 0.0 km/h NNE 1027.2 hPa 0 mm
13 avril 11:46 19.5°C 70% 0.0 km/h NNE 1027.2 hPa 0 mm
13 avril 11:45 19.5°C 70% 0.0 km/h NNE 1027.3 hPa 0 mm
13 avril 11:44 19.0°C 68% 0.0 km/h ENE 1027.3 hPa 0 mm
13 avril 11:43 19.0°C 68% 0.0 km/h E 1027.2 hPa 0 mm
13 avril 11:42 19.0°C 68% 0.0 km/h NNE 1027.3 hPa 0 mm
13 avril 11:41 19.0°C 68% 0.0 km/h NNE 1027.3 hPa 0 mm
13 avril 11:40 19.2°C 71% 0.0 km/h E 1027.4 hPa 0 mm
13 avril 11:39 19.1°C 69% 0.0 km/h NNE 1027.5 hPa 0 mm
13 avril 11:38 19.1°C 69% 0.0 km/h NNE 1027.4 hPa 0 mm
13 avril 11:37 18.9°C 70% 0.0 km/h NE 1027.4 hPa 0 mm
13 avril 11:36 18.8°C 68% 0.0 km/h N 1027.3 hPa 0 mm
13 avril 11:35 18.8°C 68% 0.0 km/h ESE 1027.3 hPa 0 mm
13 avril 11:34 18.8°C 68% 0.0 km/h NNE 1027.2 hPa 0 mm
13 avril 11:33 18.8°C 68% 0.0 km/h NNE 1027.2 hPa 0 mm
13 avril 11:32 18.9°C 68% 0.0 km/h NNE 1027.2 hPa 0 mm
13 avril 11:31 19.0°C 69% 0.0 km/h NNE 1027.2 hPa 0 mm
13 avril 11:30 19.0°C 69% 0.0 km/h NNE 1027.2 hPa 0 mm
13 avril 11:29 19.0°C 71% 0.0 km/h NNE 1027.2 hPa 0 mm
13 avril 11:28 18.8°C 70% 0.0 km/h NE 1027.2 hPa 0 mm
13 avril 11:27 18.6°C 69% 0.0 km/h NE 1027.2 hPa 0 mm
13 avril 11:26 18.6°C 69% 0.0 km/h NNE 1027.2 hPa 0 mm
13 avril 11:25 18.6°C 70% 0.0 km/h NNE 1027.2 hPa 0 mm
13 avril 11:24 18.6°C 70% 0.0 km/h NNE 1027.2 hPa 0 mm
13 avril 11:23 18.6°C 69% 0.0 km/h NNE 1027.2 hPa 0 mm
13 avril 11:22 18.8°C 69% 0.0 km/h NNE 1027.2 hPa 0 mm
13 avril 11:21 18.6°C 71% 0.0 km/h NNE 1027.1 hPa 0 mm
13 avril 11:20 18.6°C 71% 0.0 km/h NNE 1027.1 hPa 0 mm
13 avril 11:19 18.5°C 70% 0.0 km/h ENE 1027.1 hPa 0 mm
13 avril 11:18 18.6°C 70% 0.0 km/h ENE 1027.2 hPa 0 mm
13 avril 11:17 18.4°C 70% 0.0 km/h N 1027.1 hPa 0 mm
13 avril 11:16 18.4°C 70% 0.0 km/h NNE 1027.1 hPa 0 mm
13 avril 11:15 18.4°C 70% 0.0 km/h NE 1027.1 hPa 0 mm
13 avril 11:14 18.4°C 70% 0.0 km/h NNE 1027.1 hPa 0 mm
13 avril 11:13 18.3°C 69% 0.0 km/h ENE 1027.1 hPa 0 mm
13 avril 11:12 18.3°C 69% 0.0 km/h NNE 1027.1 hPa 0 mm
13 avril 11:11 18.3°C 69% 0.0 km/h NE 1027.2 hPa 0 mm
13 avril 11:10 18.4°C 69% 0.0 km/h N 1027.1 hPa 0 mm
13 avril 11:09 18.3°C 68% 0.0 km/h N 1027.1 hPa 0 mm
13 avril 11:08 18.3°C 68% 0.0 km/h NE 1027.1 hPa 0 mm
13 avril 11:07 18.3°C 68% 0.0 km/h NNE 1027.1 hPa 0 mm
13 avril 11:06 18.2°C 69% 0.0 km/h NNE 1027.1 hPa 0 mm
13 avril 11:05 18.2°C 69% 0.0 km/h NNE 1027.1 hPa 0 mm
13 avril 11:04 18.1°C 69% 0.0 km/h N 1027.1 hPa 0 mm
13 avril 11:03 18.1°C 69% 0.0 km/h NNE 1027.1 hPa 0 mm
13 avril 11:02 18.1°C 69% 0.0 km/h NNE 1027.1 hPa 0 mm
13 avril 11:01 18.0°C 70% 0.0 km/h NNE 1027.1 hPa 0 mm
13 avril 11:00 18.1°C 71% 0.0 km/h NNE 1027.1 hPa 0 mm
13 avril 10:59 18.1°C 71% 0.0 km/h NE 1027.1 hPa 0 mm
13 avril 10:58 18.0°C 69% 0.0 km/h ESE 1027.1 hPa 0 mm
13 avril 10:57 18.0°C 70% 0.0 km/h NNE 1027.1 hPa 0 mm
13 avril 10:56 18.0°C 70% 0.0 km/h N 1027.1 hPa 0 mm
13 avril 10:55 18.1°C 70% 0.0 km/h NE 1027.1 hPa 0 mm
13 avril 10:54 18.3°C 70% 0.0 km/h NNE 1027.1 hPa 0 mm
13 avril 10:53 18.2°C 70% 0.0 km/h NNE 1027.1 hPa 0 mm
13 avril 10:52 18.2°C 70% 0.0 km/h NE 1027.1 hPa 0 mm
13 avril 10:51 17.7°C 69% 0.0 km/h NE 1027.2 hPa 0 mm
13 avril 10:50 17.7°C 69% 0.0 km/h NE 1027.1 hPa 0 mm
13 avril 10:49 17.8°C 71% 0.0 km/h NE 1027.1 hPa 0 mm
13 avril 10:48 17.8°C 71% 0.0 km/h E 1027.1 hPa 0 mm
13 avril 10:47 17.8°C 72% 0.0 km/h NE 1027.1 hPa 0 mm
13 avril 10:46 17.6°C 70% 0.0 km/h N 1027.1 hPa 0 mm
13 avril 10:45 17.5°C 70% 0.0 km/h NE 1027.2 hPa 0 mm
13 avril 10:44 17.6°C 71% 0.0 km/h NNE 1027.1 hPa 0 mm
13 avril 10:43 17.6°C 71% 0.0 km/h N 1027.1 hPa 0 mm
13 avril 10:42 17.5°C 71% 0.0 km/h NNE 1027.2 hPa 0 mm
13 avril 10:41 17.5°C 71% 0.0 km/h N 1027.2 hPa 0 mm
13 avril 10:40 17.5°C 71% 0.0 km/h NE 1027.2 hPa 0 mm
13 avril 10:39 17.4°C 71% 0.0 km/h NE 1027.4 hPa 0 mm
13 avril 10:38 17.5°C 73% 0.0 km/h SE 1027.4 hPa 0 mm
13 avril 10:37 17.4°C 71% 0.0 km/h NE 1027.5 hPa 0 mm
13 avril 10:36 17.4°C 72% 0.0 km/h N 1027.4 hPa 0 mm
13 avril 10:35 17.2°C 70% 0.0 km/h NNE 1027.4 hPa 0 mm
13 avril 10:34 17.2°C 70% 0.0 km/h NNE 1027.3 hPa 0 mm
13 avril 10:33 17.4°C 70% 0.0 km/h NE 1027.3 hPa 0 mm
13 avril 10:32 17.4°C 69% 0.0 km/h N 1027.3 hPa 0 mm
13 avril 10:31 17.4°C 71% 0.0 km/h NNE 1027.4 hPa 0 mm
13 avril 10:30 17.2°C 70% 0.0 km/h NE 1027.3 hPa 0 mm
13 avril 10:29 17.2°C 70% 0.0 km/h NNE 1027.3 hPa 0 mm
13 avril 10:28 17.2°C 70% 0.0 km/h E 1027.3 hPa 0 mm
13 avril 10:27 17.2°C 70% 0.0 km/h ESE 1027.2 hPa 0 mm
13 avril 10:26 17.2°C 70% 0.0 km/h NE 1027.2 hPa 0 mm
13 avril 10:25 17.2°C 70% 0.0 km/h NE 1027.2 hPa 0 mm
13 avril 10:24 17.1°C 71% 0.0 km/h NNE 1027.2 hPa 0 mm
13 avril 10:23 17.0°C 72% 0.0 km/h NE 1027.3 hPa 0 mm
13 avril 10:22 16.8°C 71% 0.0 km/h NNE 1027.4 hPa 0 mm
13 avril 10:21 16.8°C 71% 0.0 km/h ENE 1027.4 hPa 0 mm
13 avril 10:20 16.8°C 72% 0.0 km/h NE 1027.5 hPa 0 mm
13 avril 10:19 16.9°C 71% 0.0 km/h E 1027.5 hPa 0 mm
13 avril 10:18 16.9°C 71% 0.0 km/h NNE 1027.5 hPa 0 mm
13 avril 10:17 16.9°C 72% 0.0 km/h NNE 1027.5 hPa 0 mm
13 avril 10:16 16.9°C 74% 0.0 km/h E 1027.4 hPa 0 mm
13 avril 10:15 16.8°C 73% 0.0 km/h N 1027.4 hPa 0 mm
13 avril 10:14 16.8°C 74% 0.0 km/h N 1027.4 hPa 0 mm
13 avril 10:13 16.7°C 73% 0.0 km/h NE 1027.4 hPa 0 mm
13 avril 10:12 16.7°C 75% 0.0 km/h NE 1027.4 hPa 0 mm
13 avril 10:11 16.6°C 74% 0.0 km/h E 1027.5 hPa 0 mm
13 avril 10:10 16.5°C 73% 0.0 km/h NNE 1027.5 hPa 0 mm
13 avril 10:09 16.5°C 74% 0.0 km/h ESE 1027.6 hPa 0 mm
13 avril 10:08 16.4°C 73% 0.0 km/h NE 1027.7 hPa 0 mm
13 avril 10:07 16.4°C 74% 0.0 km/h NNE 1027.6 hPa 0 mm
13 avril 10:06 16.4°C 76% 0.0 km/h NNE 1027.5 hPa 0 mm
13 avril 10:05 16.3°C 75% 0.0 km/h NNE 1027.5 hPa 0 mm
13 avril 10:04 16.3°C 75% 0.0 km/h NE 1027.5 hPa 0 mm
13 avril 10:03 16.3°C 75% 0.0 km/h N 1027.4 hPa 0 mm
13 avril 10:02 16.2°C 76% 0.0 km/h NNE 1027.4 hPa 0 mm
13 avril 10:01 16.2°C 75% 0.0 km/h NE 1027.4 hPa 0 mm
13 avril 10:00 16.3°C 77% 0.0 km/h ENE 1027.4 hPa 0 mm
13 avril 09:59 16.2°C 77% 0.0 km/h NE 1027.5 hPa 0 mm
13 avril 09:58 16.2°C 75% 0.0 km/h NNE 1027.5 hPa 0 mm
13 avril 09:57 16.2°C 75% 0.0 km/h NNE 1027.5 hPa 0 mm
13 avril 09:56 16.1°C 76% 0.0 km/h NNE 1027.5 hPa 0 mm
13 avril 09:55 16.1°C 77% 0.0 km/h NNE 1027.5 hPa 0 mm
13 avril 09:54 15.8°C 76% 0.0 km/h NE 1027.5 hPa 0 mm
13 avril 09:53 15.8°C 76% 0.0 km/h ESE 1027.5 hPa 0 mm
13 avril 09:52 15.7°C 76% 0.0 km/h N 1027.5 hPa 0 mm
13 avril 09:51 15.7°C 76% 0.0 km/h NNE 1027.6 hPa 0 mm
13 avril 09:50 15.7°C 76% 0.0 km/h NNE 1027.6 hPa 0 mm
13 avril 09:49 15.6°C 77% 0.0 km/h NNE 1027.6 hPa 0 mm
13 avril 09:48 15.6°C 77% 0.0 km/h N 1027.5 hPa 0 mm
13 avril 09:47 15.5°C 77% 0.0 km/h NE 1027.6 hPa 0 mm
13 avril 09:46 15.5°C 77% 0.0 km/h E 1027.6 hPa 0 mm
13 avril 09:45 15.5°C 77% 0.0 km/h ESE 1027.5 hPa 0 mm
13 avril 09:44 15.5°C 77% 0.0 km/h E 1027.5 hPa 0 mm
13 avril 09:43 15.4°C 77% 0.0 km/h NE 1027.5 hPa 0 mm
13 avril 09:42 15.3°C 78% 0.0 km/h ENE 1027.5 hPa 0 mm
13 avril 09:41 15.2°C 77% 0.0 km/h NE 1027.6 hPa 0 mm
13 avril 09:40 15.1°C 77% 0.0 km/h N 1027.6 hPa 0 mm
13 avril 09:39 15.1°C 77% 0.0 km/h N 1027.7 hPa 0 mm
13 avril 09:38 15.0°C 78% 0.0 km/h NNE 1027.7 hPa 0 mm
13 avril 09:37 14.9°C 79% 0.0 km/h NNE 1027.7 hPa 0 mm
13 avril 09:36 14.9°C 79% 0.0 km/h NNE 1027.5 hPa 0 mm
13 avril 09:35 14.9°C 80% 0.0 km/h N 1027.5 hPa 0 mm
13 avril 09:34 14.9°C 80% 0.0 km/h NNE 1027.5 hPa 0 mm
13 avril 09:33 14.9°C 80% 0.0 km/h SE 1027.5 hPa 0 mm
13 avril 09:32 14.8°C 79% 0.0 km/h SSE 1027.5 hPa 0 mm
13 avril 09:31 14.7°C 82% 0.0 km/h SSE 1027.5 hPa 0 mm
13 avril 09:30 14.7°C 82% 0.0 km/h S 1027.5 hPa 0 mm
13 avril 09:29 14.7°C 82% 0.0 km/h ENE 1027.6 hPa 0 mm
13 avril 09:28 14.6°C 81% 0.0 km/h SSE 1027.6 hPa 0 mm
13 avril 09:27 14.6°C 82% 0.0 km/h SE 1027.6 hPa 0 mm
13 avril 09:26 14.5°C 80% 0.0 km/h E 1027.6 hPa 0 mm
13 avril 09:25 14.5°C 81% 0.0 km/h ENE 1027.7 hPa 0 mm
13 avril 09:24 14.4°C 81% 0.0 km/h ESE 1027.7 hPa 0 mm
13 avril 09:23 14.4°C 81% 0.0 km/h N 1027.7 hPa 0 mm
13 avril 09:22 14.3°C 80% 0.0 km/h N 1027.6 hPa 0 mm
13 avril 09:21 14.3°C 81% 0.0 km/h N 1027.7 hPa 0 mm
13 avril 09:20 14.2°C 82% 0.0 km/h N 1027.7 hPa 0 mm
13 avril 09:19 14.2°C 82% 0.0 km/h N 1027.7 hPa 0 mm
13 avril 09:18 14.2°C 82% 0.0 km/h N 1027.7 hPa 0 mm
13 avril 09:17 14.1°C 81% 0.0 km/h N 1027.7 hPa 0 mm
13 avril 09:16 14.1°C 82% 0.0 km/h N 1027.8 hPa 0 mm
13 avril 09:15 14.1°C 82% 0.0 km/h N 1027.7 hPa 0 mm
13 avril 09:14 14.0°C 82% 0.0 km/h N 1027.7 hPa 0 mm
13 avril 09:13 14.0°C 82% 0.0 km/h N 1027.8 hPa 0 mm
13 avril 09:12 13.9°C 83% 0.0 km/h NNE 1027.7 hPa 0 mm
13 avril 09:11 13.9°C 83% 0.0 km/h SSE 1027.7 hPa 0 mm
13 avril 09:10 13.8°C 84% 0.0 km/h S 1027.8 hPa 0 mm
13 avril 09:09 13.8°C 84% 0.0 km/h N 1027.8 hPa 0 mm
13 avril 09:08 13.8°C 83% 0.0 km/h NE 1027.8 hPa 0 mm
13 avril 09:07 13.7°C 83% 0.0 km/h NNE 1027.7 hPa 0 mm
13 avril 09:06 13.6°C 83% 0.0 km/h N 1027.7 hPa 0 mm
13 avril 09:05 13.6°C 83% 0.0 km/h N 1027.7 hPa 0 mm
13 avril 09:04 13.5°C 83% 0.0 km/h NNE 1027.7 hPa 0 mm
13 avril 09:03 13.4°C 84% 0.0 km/h SE 1027.7 hPa 0 mm
13 avril 09:02 13.2°C 85% 0.0 km/h SSE 1027.7 hPa 0 mm
13 avril 09:01 13.2°C 85% 0.0 km/h SE 1027.7 hPa 0 mm
13 avril 09:00 13.2°C 85% 0.0 km/h SSE 1027.7 hPa 0 mm
13 avril 08:59 13.1°C 85% 0.0 km/h SSE 1027.7 hPa 0 mm
13 avril 08:58 13.0°C 86% 0.0 km/h ESE 1027.7 hPa 0 mm
13 avril 08:57 12.9°C 87% 0.0 km/h ESE 1027.6 hPa 0 mm
13 avril 08:56 12.9°C 87% 0.0 km/h SE 1027.6 hPa 0 mm
13 avril 08:55 12.8°C 88% 0.0 km/h SSE 1027.6 hPa 0 mm
13 avril 08:54 12.7°C 88% 0.0 km/h SSE 1027.6 hPa 0 mm
13 avril 08:53 12.7°C 89% 0.0 km/h ESE 1027.7 hPa 0 mm
13 avril 08:52 12.6°C 90% 0.0 km/h SE 1027.6 hPa 0 mm
13 avril 08:51 12.5°C 90% 0.0 km/h SSE 1027.6 hPa 0 mm
13 avril 08:50 12.5°C 92% 0.0 km/h ENE 1027.6 hPa 0 mm
13 avril 08:49 12.5°C 92% 0.0 km/h NE 1027.6 hPa 0 mm
13 avril 08:48 12.5°C 92% 0.0 km/h ESE 1027.6 hPa 0 mm
13 avril 08:47 12.4°C 92% 0.0 km/h E 1027.6 hPa 0 mm
13 avril 08:46 12.3°C 93% 0.0 km/h SE 1027.6 hPa 0 mm
13 avril 08:45 12.3°C 93% 0.0 km/h E 1027.6 hPa 0 mm
13 avril 08:44 12.3°C 93% 0.0 km/h NE 1027.6 hPa 0 mm
13 avril 08:43 12.2°C 94% 0.0 km/h N 1027.6 hPa 0 mm
13 avril 08:42 12.2°C 94% 0.0 km/h N 1027.6 hPa 0 mm
13 avril 08:41 12.2°C 94% 0.0 km/h N 1027.6 hPa 0 mm
13 avril 08:40 12.2°C 94% 0.0 km/h N 1027.6 hPa 0 mm
13 avril 08:39 12.2°C 95% 0.0 km/h N 1027.6 hPa 0 mm
13 avril 08:38 12.1°C 95% 0.0 km/h N 1027.6 hPa 0 mm
13 avril 08:37 11.8°C 95% 0.0 km/h N 1027.7 hPa 0 mm
13 avril 08:36 11.8°C 95% 0.0 km/h N 1027.8 hPa 0 mm
13 avril 08:35 11.8°C 95% 0.0 km/h N 1027.7 hPa 0 mm
13 avril 08:34 11.7°C 95% 0.0 km/h N 1027.7 hPa 0 mm
13 avril 08:33 11.6°C 95% 0.0 km/h N 1027.7 hPa 0 mm
13 avril 08:32 11.6°C 95% 0.0 km/h N 1027.8 hPa 0 mm
13 avril 08:31 11.4°C 95% 0.0 km/h N 1027.8 hPa 0 mm
13 avril 08:30 11.4°C 95% 0.0 km/h N 1027.8 hPa 0 mm
13 avril 08:29 11.3°C 96% 0.0 km/h N 1027.8 hPa 0 mm
13 avril 08:28 10.8°C 96% 0.0 km/h N 1027.8 hPa 0 mm
13 avril 08:27 10.8°C 96% 0.0 km/h N 1027.8 hPa 0 mm
13 avril 08:26 10.7°C 96% 0.0 km/h N 1027.8 hPa 0 mm
13 avril 08:25 10.5°C 96% 0.0 km/h N 1027.8 hPa 0 mm
13 avril 08:24 10.5°C 96% 0.0 km/h N 1027.9 hPa 0 mm
13 avril 08:23 10.4°C 96% 0.0 km/h N 1028.0 hPa 0 mm
13 avril 08:22 10.3°C 96% 0.0 km/h N 1028.0 hPa 0 mm
13 avril 08:21 10.2°C 96% 0.0 km/h N 1027.9 hPa 0 mm
13 avril 08:20 10.1°C 96% 0.0 km/h N 1027.9 hPa 0 mm
13 avril 08:19 10.0°C 96% 0.0 km/h N 1027.9 hPa 0 mm
13 avril 08:18 9.9°C 96% 0.0 km/h N 1027.9 hPa 0 mm
13 avril 08:17 9.8°C 96% 0.0 km/h N 1027.9 hPa 0 mm
13 avril 08:16 9.6°C 96% 0.0 km/h N 1027.9 hPa 0 mm
13 avril 08:15 9.4°C 96% 0.0 km/h N 1027.9 hPa 0 mm
13 avril 08:14 9.3°C 96% 0.0 km/h N 1028.0 hPa 0 mm
13 avril 08:13 9.3°C 96% 0.0 km/h N 1028.0 hPa 0 mm
13 avril 08:12 9.3°C 96% 0.0 km/h N 1028.0 hPa 0 mm
13 avril 08:11 9.3°C 96% 0.0 km/h N 1027.9 hPa 0 mm
13 avril 08:10 9.3°C 96% 0.0 km/h N 1027.8 hPa 0 mm
13 avril 08:09 9.3°C 96% 0.0 km/h N 1027.8 hPa 0 mm
13 avril 08:08 9.3°C 96% 0.0 km/h N 1027.9 hPa 0 mm
13 avril 08:07 9.2°C 96% 0.0 km/h N 1027.9 hPa 0 mm
13 avril 08:06 9.2°C 96% 0.0 km/h N 1027.8 hPa 0 mm
13 avril 08:05 9.1°C 96% 0.0 km/h N 1027.8 hPa 0 mm
13 avril 08:04 9.0°C 96% 0.0 km/h N 1027.8 hPa 0 mm
13 avril 08:03 8.8°C 96% 0.0 km/h N 1027.8 hPa 0 mm
13 avril 08:02 8.7°C 96% 0.0 km/h N 1027.8 hPa 0 mm
13 avril 08:01 8.6°C 96% 0.0 km/h N 1027.8 hPa 0 mm
13 avril 08:00 8.5°C 96% 0.0 km/h N 1027.7 hPa 0 mm
13 avril 07:59 8.4°C 96% 0.0 km/h N 1027.7 hPa 0 mm
13 avril 07:58 8.3°C 96% 0.0 km/h N 1027.7 hPa 0 mm
13 avril 07:57 8.3°C 96% 0.0 km/h N 1027.7 hPa 0 mm
13 avril 07:56 8.2°C 96% 0.0 km/h N 1027.7 hPa 0 mm
13 avril 07:55 8.1°C 96% 0.0 km/h N 1027.7 hPa 0 mm
13 avril 07:54 8.0°C 96% 0.0 km/h N 1027.7 hPa 0 mm
13 avril 07:53 8.0°C 96% 0.0 km/h N 1027.7 hPa 0 mm
13 avril 07:52 8.0°C 96% 0.0 km/h N 1027.7 hPa 0 mm
13 avril 07:51 7.9°C 96% 0.0 km/h N 1027.7 hPa 0 mm
13 avril 07:50 7.8°C 96% 0.0 km/h N 1027.8 hPa 0 mm
13 avril 07:49 7.7°C 96% 0.0 km/h N 1027.8 hPa 0 mm
13 avril 07:48 7.6°C 96% 0.0 km/h N 1027.7 hPa 0 mm
13 avril 07:47 7.5°C 96% 0.0 km/h N 1027.7 hPa 0 mm
13 avril 07:46 7.4°C 96% 0.0 km/h N 1027.7 hPa 0 mm
13 avril 07:45 7.4°C 96% 0.0 km/h N 1027.7 hPa 0 mm
13 avril 07:44 7.3°C 96% 0.0 km/h N 1027.8 hPa 0 mm
13 avril 07:43 7.3°C 96% 0.0 km/h N 1027.7 hPa 0 mm
13 avril 07:42 7.2°C 96% 0.0 km/h N 1027.7 hPa 0 mm
13 avril 07:41 7.1°C 96% 0.0 km/h N 1027.8 hPa 0 mm
13 avril 07:40 7.1°C 96% 0.0 km/h N 1027.8 hPa 0 mm
13 avril 07:39 7.1°C 96% 0.0 km/h N 1027.7 hPa 0 mm
13 avril 07:38 7.1°C 96% 0.0 km/h N 1027.7 hPa 0 mm
13 avril 07:37 7.1°C 96% 0.0 km/h N 1027.7 hPa 0 mm
13 avril 07:36 7.0°C 96% 0.0 km/h N 1027.7 hPa 0 mm
13 avril 07:35 6.9°C 96% 0.0 km/h N 1027.7 hPa 0 mm
13 avril 07:34 6.9°C 96% 0.0 km/h N 1027.6 hPa 0 mm
13 avril 07:33 6.9°C 96% 0.0 km/h N 1027.7 hPa 0 mm
13 avril 07:32 6.9°C 96% 0.0 km/h N 1027.7 hPa 0 mm
13 avril 07:31 6.9°C 96% 0.0 km/h N 1027.7 hPa 0 mm
13 avril 07:30 6.9°C 96% 0.0 km/h N 1027.7 hPa 0 mm
13 avril 07:29 6.9°C 96% 0.0 km/h N 1027.7 hPa 0 mm
13 avril 07:28 6.9°C 96% 0.0 km/h N 1027.7 hPa 0 mm
13 avril 07:27 6.9°C 96% 0.0 km/h N 1027.6 hPa 0 mm
13 avril 07:26 6.9°C 96% 0.0 km/h N 1027.6 hPa 0 mm
13 avril 07:25 6.8°C 96% 0.0 km/h N 1027.6 hPa 0 mm
13 avril 07:24 6.7°C 96% 0.0 km/h N 1027.6 hPa 0 mm
13 avril 07:23 6.7°C 96% 0.0 km/h N 1027.6 hPa 0 mm
13 avril 07:22 6.7°C 96% 0.0 km/h N 1027.6 hPa 0 mm
13 avril 07:21 6.7°C 96% 0.0 km/h N 1027.7 hPa 0 mm
13 avril 07:20 6.7°C 96% 0.0 km/h N 1027.6 hPa 0 mm
13 avril 07:19 6.7°C 96% 0.0 km/h N 1027.6 hPa 0 mm
13 avril 07:18 6.7°C 96% 0.0 km/h N 1027.6 hPa 0 mm
13 avril 07:17 6.7°C 96% 0.0 km/h N 1027.5 hPa 0 mm
13 avril 07:16 6.7°C 96% 0.0 km/h N 1027.6 hPa 0 mm
13 avril 07:15 6.6°C 96% 0.0 km/h N 1027.6 hPa 0 mm
13 avril 07:14 6.6°C 96% 0.0 km/h N 1027.5 hPa 0 mm
13 avril 07:13 6.6°C 96% 0.0 km/h N 1027.5 hPa 0 mm
13 avril 07:12 6.6°C 96% 0.0 km/h N 1027.5 hPa 0 mm
13 avril 07:11 6.6°C 96% 0.0 km/h N 1027.4 hPa 0 mm
13 avril 07:10 6.6°C 96% 0.0 km/h N 1027.4 hPa 0 mm
13 avril 07:09 6.6°C 96% 0.0 km/h N 1027.4 hPa 0 mm
13 avril 07:08 6.6°C 96% 0.0 km/h N 1027.4 hPa 0 mm
13 avril 07:07 6.6°C 96% 0.0 km/h N 1027.4 hPa 0 mm
13 avril 07:06 6.6°C 96% 0.0 km/h N 1027.4 hPa 0 mm
13 avril 07:05 6.6°C 96% 0.0 km/h N 1027.4 hPa 0 mm
13 avril 07:04 6.5°C 96% 0.0 km/h N 1027.3 hPa 0 mm
13 avril 07:03 6.4°C 96% 0.0 km/h N 1027.4 hPa 0 mm
13 avril 07:02 6.3°C 96% 0.0 km/h N 1027.4 hPa 0 mm
13 avril 07:01 6.3°C 95% 0.0 km/h N 1027.3 hPa 0 mm
13 avril 07:00 6.3°C 95% 0.0 km/h N 1027.4 hPa 0 mm
13 avril 06:59 6.4°C 95% 0.0 km/h N 1027.4 hPa 0 mm
13 avril 06:58 6.4°C 95% 0.0 km/h N 1027.4 hPa 0 mm
13 avril 06:57 6.4°C 95% 0.0 km/h N 1027.3 hPa 0 mm
13 avril 06:56 6.5°C 95% 0.0 km/h N 1027.3 hPa 0 mm
13 avril 06:55 6.5°C 95% 0.0 km/h N 1027.3 hPa 0 mm
13 avril 06:54 6.5°C 95% 0.0 km/h N 1027.3 hPa 0 mm
13 avril 06:53 6.6°C 95% 0.0 km/h N 1027.3 hPa 0 mm
13 avril 06:52 6.6°C 95% 0.0 km/h N 1027.3 hPa 0 mm
13 avril 06:51 6.6°C 95% 0.0 km/h N 1027.3 hPa 0 mm
13 avril 06:50 6.6°C 95% 0.0 km/h N 1027.2 hPa 0 mm
13 avril 06:49 6.6°C 95% 0.0 km/h N 1027.3 hPa 0 mm
13 avril 06:48 6.6°C 95% 0.0 km/h N 1027.2 hPa 0 mm
13 avril 06:47 6.6°C 95% 0.0 km/h N 1027.2 hPa 0 mm
13 avril 06:46 6.6°C 95% 0.0 km/h N 1027.3 hPa 0 mm
13 avril 06:45 6.6°C 95% 0.0 km/h N 1027.3 hPa 0 mm
13 avril 06:44 6.5°C 95% 0.0 km/h N 1027.3 hPa 0 mm
13 avril 06:43 6.5°C 95% 0.0 km/h N 1027.3 hPa 0 mm
13 avril 06:42 6.4°C 95% 0.0 km/h N 1027.3 hPa 0 mm
13 avril 06:41 6.4°C 95% 0.0 km/h N 1027.3 hPa 0 mm
13 avril 06:40 6.4°C 95% 0.0 km/h N 1027.3 hPa 0 mm
13 avril 06:39 6.5°C 95% 0.0 km/h N 1027.3 hPa 0 mm
13 avril 06:38 6.5°C 95% 0.0 km/h N 1027.4 hPa 0 mm
13 avril 06:37 6.5°C 95% 0.0 km/h N 1027.4 hPa 0 mm
13 avril 06:36 6.6°C 95% 0.0 km/h N 1027.4 hPa 0 mm
13 avril 06:35 6.6°C 95% 0.0 km/h N 1027.3 hPa 0 mm
13 avril 06:34 6.6°C 95% 0.0 km/h N 1027.3 hPa 0 mm
13 avril 06:33 6.6°C 95% 0.0 km/h N 1027.3 hPa 0 mm
13 avril 06:32 6.6°C 95% 0.0 km/h N 1027.3 hPa 0 mm
13 avril 06:31 6.6°C 95% 0.0 km/h N 1027.2 hPa 0 mm
13 avril 06:30 6.6°C 95% 0.0 km/h N 1027.2 hPa 0 mm
13 avril 06:29 6.5°C 95% 0.0 km/h N 1027.2 hPa 0 mm
13 avril 06:28 6.5°C 95% 0.0 km/h N 1027.2 hPa 0 mm
13 avril 06:27 6.5°C 95% 0.0 km/h N 1027.2 hPa 0 mm
13 avril 06:26 6.5°C 95% 0.0 km/h N 1027.3 hPa 0 mm
13 avril 06:25 6.6°C 95% 0.0 km/h N 1027.3 hPa 0 mm
13 avril 06:24 6.6°C 95% 0.0 km/h N 1027.3 hPa 0 mm
13 avril 06:23 6.6°C 95% 0.0 km/h N 1027.3 hPa 0 mm
13 avril 06:22 6.7°C 95% 0.0 km/h N 1027.3 hPa 0 mm
13 avril 06:21 6.7°C 95% 0.0 km/h N 1027.3 hPa 0 mm
13 avril 06:20 6.8°C 95% 0.0 km/h N 1027.3 hPa 0 mm
13 avril 06:19 6.8°C 95% 0.0 km/h N 1027.3 hPa 0 mm
13 avril 06:18 6.7°C 95% 0.0 km/h N 1027.2 hPa 0 mm
13 avril 06:17 6.8°C 95% 0.0 km/h N 1027.3 hPa 0 mm
13 avril 06:16 6.8°C 95% 0.0 km/h N 1027.3 hPa 0 mm
13 avril 06:15 6.8°C 95% 0.0 km/h N 1027.3 hPa 0 mm
13 avril 06:14 6.7°C 95% 0.0 km/h N 1027.3 hPa 0 mm
13 avril 06:13 6.7°C 95% 0.0 km/h N 1027.3 hPa 0 mm
13 avril 06:12 6.7°C 95% 0.0 km/h N 1027.3 hPa 0 mm
13 avril 06:11 6.7°C 95% 0.0 km/h N 1027.3 hPa 0 mm
13 avril 06:10 6.7°C 95% 0.0 km/h N 1027.3 hPa 0 mm
13 avril 06:09 6.6°C 95% 0.0 km/h N 1027.3 hPa 0 mm
13 avril 06:08 6.6°C 95% 0.0 km/h N 1027.3 hPa 0 mm
13 avril 06:07 6.7°C 95% 0.0 km/h N 1027.3 hPa 0 mm
13 avril 06:06 6.8°C 95% 0.0 km/h N 1027.3 hPa 0 mm
13 avril 06:05 6.8°C 95% 0.0 km/h N 1027.3 hPa 0 mm
13 avril 06:04 6.9°C 95% 0.0 km/h N 1027.3 hPa 0 mm
13 avril 06:03 7.0°C 95% 0.0 km/h N 1027.3 hPa 0 mm
13 avril 06:02 7.2°C 95% 0.0 km/h N 1027.3 hPa 0 mm
13 avril 06:01 7.3°C 95% 0.0 km/h N 1027.3 hPa 0 mm
13 avril 06:00 7.3°C 95% 0.0 km/h N 1027.3 hPa 0 mm
13 avril 05:59 7.2°C 95% 0.0 km/h N 1027.3 hPa 0 mm
13 avril 05:58 7.0°C 96% 0.0 km/h N 1027.4 hPa 0 mm
13 avril 05:57 6.7°C 95% 0.0 km/h N 1027.4 hPa 0 mm
13 avril 05:56 6.6°C 95% 0.0 km/h N 1027.4 hPa 0 mm
13 avril 05:55 6.6°C 95% 0.0 km/h N 1027.4 hPa 0 mm
13 avril 05:54 6.7°C 95% 0.0 km/h N 1027.3 hPa 0 mm
13 avril 05:53 6.7°C 95% 0.0 km/h N 1027.4 hPa 0 mm
13 avril 05:52 6.7°C 95% 0.0 km/h N 1027.4 hPa 0 mm
13 avril 05:51 6.5°C 95% 0.0 km/h N 1027.4 hPa 0 mm
13 avril 05:50 6.5°C 95% 0.0 km/h N 1027.4 hPa 0 mm
13 avril 05:49 6.5°C 95% 0.0 km/h N 1027.4 hPa 0 mm
13 avril 05:48 6.6°C 95% 0.0 km/h N 1027.4 hPa 0 mm
13 avril 05:47 6.6°C 95% 0.0 km/h N 1027.4 hPa 0 mm
13 avril 05:46 6.6°C 95% 0.0 km/h N 1027.4 hPa 0 mm
13 avril 05:45 6.6°C 95% 0.0 km/h N 1027.4 hPa 0 mm
13 avril 05:44 6.6°C 95% 0.0 km/h N 1027.4 hPa 0 mm
13 avril 05:43 6.6°C 95% 0.0 km/h N 1027.4 hPa 0 mm
13 avril 05:42 6.5°C 95% 0.0 km/h N 1027.4 hPa 0 mm
13 avril 05:41 6.7°C 95% 0.0 km/h N 1027.5 hPa 0 mm
13 avril 05:40 6.7°C 95% 0.0 km/h N 1027.4 hPa 0 mm
13 avril 05:39 6.8°C 95% 0.0 km/h N 1027.4 hPa 0 mm
13 avril 05:38 6.8°C 95% 0.0 km/h N 1027.4 hPa 0 mm
13 avril 05:37 6.8°C 95% 0.0 km/h N 1027.4 hPa 0 mm
13 avril 05:36 6.8°C 95% 0.0 km/h N 1027.4 hPa 0 mm
13 avril 05:35 6.8°C 95% 0.0 km/h N 1027.4 hPa 0 mm
13 avril 05:34 6.8°C 95% 0.0 km/h N 1027.4 hPa 0 mm
13 avril 05:33 6.8°C 95% 0.0 km/h N 1027.4 hPa 0 mm
13 avril 05:32 6.7°C 95% 0.0 km/h N 1027.4 hPa 0 mm
13 avril 05:31 6.7°C 95% 0.0 km/h N 1027.4 hPa 0 mm
13 avril 05:30 6.7°C 95% 0.0 km/h N 1027.4 hPa 0 mm
13 avril 05:29 6.7°C 95% 0.0 km/h N 1027.4 hPa 0 mm
13 avril 05:28 6.7°C 95% 0.0 km/h N 1027.4 hPa 0 mm
13 avril 05:27 6.6°C 95% 0.0 km/h N 1027.4 hPa 0 mm
13 avril 05:26 6.6°C 95% 0.0 km/h N 1027.4 hPa 0 mm
13 avril 05:25 6.7°C 95% 0.0 km/h N 1027.4 hPa 0 mm
13 avril 05:24 6.8°C 95% 0.0 km/h N 1027.4 hPa 0 mm
13 avril 05:23 6.8°C 95% 0.0 km/h N 1027.4 hPa 0 mm
13 avril 05:22 6.8°C 95% 0.0 km/h N 1027.4 hPa 0 mm
13 avril 05:21 6.9°C 95% 0.0 km/h N 1027.4 hPa 0 mm
13 avril 05:20 6.9°C 95% 0.0 km/h N 1027.3 hPa 0 mm
13 avril 05:19 7.0°C 95% 0.0 km/h N 1027.4 hPa 0 mm
13 avril 05:18 7.0°C 95% 0.0 km/h N 1027.3 hPa 0 mm
13 avril 05:17 7.0°C 95% 0.0 km/h N 1027.3 hPa 0 mm
13 avril 05:16 7.0°C 95% 0.0 km/h N 1027.4 hPa 0 mm
13 avril 05:15 7.0°C 95% 0.0 km/h N 1027.3 hPa 0 mm
13 avril 05:14 7.0°C 95% 0.0 km/h N 1027.3 hPa 0 mm
13 avril 05:13 6.9°C 95% 0.0 km/h N 1027.3 hPa 0 mm
13 avril 05:12 6.9°C 95% 0.0 km/h N 1027.3 hPa 0 mm
13 avril 05:11 6.8°C 95% 0.0 km/h N 1027.3 hPa 0 mm
13 avril 05:10 6.8°C 95% 0.0 km/h N 1027.3 hPa 0 mm
13 avril 05:09 6.8°C 94% 0.0 km/h N 1027.4 hPa 0 mm
13 avril 05:08 6.9°C 94% 0.0 km/h N 1027.4 hPa 0 mm
13 avril 05:07 6.9°C 95% 0.0 km/h N 1027.4 hPa 0 mm
13 avril 05:06 7.0°C 94% 0.0 km/h N 1027.3 hPa 0 mm
13 avril 05:05 7.0°C 94% 0.0 km/h N 1027.3 hPa 0 mm
13 avril 05:04 7.0°C 94% 0.0 km/h N 1027.3 hPa 0 mm
13 avril 05:03 7.0°C 95% 0.0 km/h N 1027.3 hPa 0 mm
13 avril 05:02 7.0°C 95% 0.0 km/h N 1027.3 hPa 0 mm
13 avril 05:01 7.0°C 94% 0.0 km/h N 1027.3 hPa 0 mm
13 avril 05:00 6.9°C 94% 0.0 km/h N 1027.3 hPa 0 mm
13 avril 04:59 6.9°C 94% 0.0 km/h N 1027.3 hPa 0 mm
13 avril 04:58 7.0°C 94% 0.0 km/h N 1027.2 hPa 0 mm
13 avril 04:57 7.0°C 94% 0.0 km/h N 1027.2 hPa 0 mm
13 avril 04:56 7.0°C 94% 0.0 km/h N 1027.2 hPa 0 mm
13 avril 04:55 7.0°C 94% 0.0 km/h N 1027.3 hPa 0 mm
13 avril 04:54 7.0°C 94% 0.0 km/h N 1027.3 hPa 0 mm
13 avril 04:53 6.9°C 94% 0.0 km/h N 1027.3 hPa 0 mm
13 avril 04:52 6.9°C 94% 0.0 km/h N 1027.2 hPa 0 mm
13 avril 04:51 6.9°C 94% 0.0 km/h N 1027.2 hPa 0 mm
13 avril 04:50 6.9°C 94% 0.0 km/h N 1027.2 hPa 0 mm
13 avril 04:49 7.0°C 94% 0.0 km/h N 1027.3 hPa 0 mm
13 avril 04:48 7.0°C 94% 0.0 km/h N 1027.3 hPa 0 mm
13 avril 04:47 7.0°C 94% 0.0 km/h N 1027.3 hPa 0 mm
13 avril 04:46 7.0°C 94% 0.0 km/h N 1027.3 hPa 0 mm
13 avril 04:45 7.0°C 94% 0.0 km/h N 1027.3 hPa 0 mm
13 avril 04:44 6.9°C 94% 0.0 km/h N 1027.2 hPa 0 mm
13 avril 04:43 6.9°C 94% 0.0 km/h N 1027.2 hPa 0 mm
13 avril 04:42 7.0°C 94% 0.0 km/h N 1027.2 hPa 0 mm
13 avril 04:41 7.0°C 94% 0.0 km/h N 1027.2 hPa 0 mm
13 avril 04:40 7.0°C 94% 0.0 km/h N 1027.2 hPa 0 mm
13 avril 04:39 7.0°C 94% 0.0 km/h N 1027.3 hPa 0 mm
13 avril 04:38 7.0°C 94% 0.0 km/h N 1027.3 hPa 0 mm
13 avril 04:37 7.1°C 94% 0.0 km/h N 1027.3 hPa 0 mm
13 avril 04:36 7.0°C 94% 0.0 km/h N 1027.3 hPa 0 mm
13 avril 04:35 7.0°C 94% 0.0 km/h N 1027.3 hPa 0 mm
13 avril 04:34 7.0°C 94% 0.0 km/h N 1027.3 hPa 0 mm
13 avril 04:33 7.0°C 94% 0.0 km/h N 1027.3 hPa 0 mm
13 avril 04:32 7.0°C 94% 0.0 km/h N 1027.3 hPa 0 mm
13 avril 04:31 7.1°C 94% 0.0 km/h N 1027.3 hPa 0 mm
13 avril 04:30 7.1°C 94% 0.0 km/h N 1027.3 hPa 0 mm
13 avril 04:29 7.1°C 94% 0.0 km/h N 1027.3 hPa 0 mm
13 avril 04:28 7.1°C 94% 0.0 km/h N 1027.3 hPa 0 mm
13 avril 04:27 7.0°C 94% 0.0 km/h N 1027.3 hPa 0 mm
13 avril 04:26 7.0°C 94% 0.0 km/h N 1027.3 hPa 0 mm
13 avril 04:25 7.0°C 94% 0.0 km/h N 1027.3 hPa 0 mm
13 avril 04:24 7.1°C 94% 0.0 km/h N 1027.3 hPa 0 mm
13 avril 04:23 7.1°C 94% 0.0 km/h N 1027.3 hPa 0 mm
13 avril 04:22 7.2°C 94% 0.0 km/h N 1027.3 hPa 0 mm
13 avril 04:21 7.2°C 94% 0.0 km/h N 1027.3 hPa 0 mm
13 avril 04:20 7.3°C 94% 0.0 km/h N 1027.3 hPa 0 mm
13 avril 04:19 7.4°C 94% 0.0 km/h N 1027.3 hPa 0 mm
13 avril 04:18 7.4°C 94% 0.0 km/h N 1027.3 hPa 0 mm
13 avril 04:17 7.5°C 94% 0.0 km/h N 1027.2 hPa 0 mm
13 avril 04:16 7.4°C 94% 0.0 km/h N 1027.3 hPa 0 mm
13 avril 04:15 7.5°C 94% 0.0 km/h N 1027.3 hPa 0 mm
13 avril 04:14 7.5°C 94% 0.0 km/h N 1027.3 hPa 0 mm
13 avril 04:13 7.5°C 94% 0.0 km/h N 1027.2 hPa 0 mm
13 avril 04:12 7.5°C 94% 0.0 km/h N 1027.2 hPa 0 mm
13 avril 04:11 7.4°C 94% 0.0 km/h N 1027.3 hPa 0 mm
13 avril 04:10 7.3°C 94% 0.0 km/h N 1027.2 hPa 0 mm
13 avril 04:09 7.2°C 94% 0.0 km/h N 1027.2 hPa 0 mm
13 avril 04:08 7.2°C 94% 0.0 km/h N 1027.3 hPa 0 mm
13 avril 04:07 7.2°C 94% 0.0 km/h N 1027.3 hPa 0 mm
13 avril 04:06 7.4°C 94% 0.0 km/h N 1027.3 hPa 0 mm
13 avril 04:05 7.4°C 94% 0.0 km/h N 1027.3 hPa 0 mm
13 avril 04:04 7.4°C 94% 0.0 km/h N 1027.4 hPa 0 mm
13 avril 04:03 7.4°C 94% 0.0 km/h N 1027.3 hPa 0 mm
13 avril 04:02 7.4°C 94% 0.0 km/h N 1027.3 hPa 0 mm
13 avril 04:01 7.5°C 94% 0.0 km/h N 1027.3 hPa 0 mm
13 avril 04:00 7.5°C 94% 0.0 km/h N 1027.3 hPa 0 mm
13 avril 03:59 7.5°C 94% 0.0 km/h N 1027.3 hPa 0 mm
13 avril 03:58 7.5°C 94% 0.0 km/h N 1027.3 hPa 0 mm
13 avril 03:57 7.5°C 94% 0.0 km/h N 1027.3 hPa 0 mm
13 avril 03:56 7.4°C 94% 0.0 km/h N 1027.3 hPa 0 mm
13 avril 03:55 7.4°C 93% 0.0 km/h N 1027.3 hPa 0 mm
13 avril 03:54 7.5°C 93% 0.0 km/h N 1027.3 hPa 0 mm
13 avril 03:53 7.5°C 94% 0.0 km/h N 1027.3 hPa 0 mm
13 avril 03:52 7.5°C 94% 0.0 km/h N 1027.3 hPa 0 mm
13 avril 03:51 7.5°C 94% 0.0 km/h N 1027.3 hPa 0 mm
13 avril 03:50 7.5°C 94% 0.0 km/h N 1027.3 hPa 0 mm
13 avril 03:49 7.5°C 93% 0.0 km/h N 1027.3 hPa 0 mm
13 avril 03:48 7.5°C 93% 0.0 km/h N 1027.3 hPa 0 mm
13 avril 03:47 7.5°C 93% 0.0 km/h N 1027.3 hPa 0 mm
13 avril 03:46 7.7°C 93% 0.0 km/h N 1027.3 hPa 0 mm
13 avril 03:45 7.7°C 93% 0.0 km/h N 1027.3 hPa 0 mm
13 avril 03:44 7.5°C 93% 0.0 km/h N 1027.3 hPa 0 mm
13 avril 03:43 7.5°C 93% 0.0 km/h NNE 1027.4 hPa 0 mm
13 avril 03:42 7.5°C 93% 0.0 km/h N 1027.4 hPa 0 mm
13 avril 03:41 7.5°C 93% 0.0 km/h N 1027.3 hPa 0 mm
13 avril 03:40 7.6°C 93% 0.0 km/h N 1027.3 hPa 0 mm
13 avril 03:39 7.4°C 93% 0.0 km/h N 1027.4 hPa 0 mm
13 avril 03:38 7.4°C 93% 0.0 km/h N 1027.3 hPa 0 mm
13 avril 03:37 7.4°C 93% 0.0 km/h N 1027.3 hPa 0 mm
13 avril 03:36 7.4°C 93% 0.0 km/h N 1027.3 hPa 0 mm
13 avril 03:35 7.3°C 93% 0.0 km/h N 1027.4 hPa 0 mm
13 avril 03:34 7.4°C 93% 0.0 km/h N 1027.4 hPa 0 mm
13 avril 03:33 7.5°C 93% 0.0 km/h N 1027.4 hPa 0 mm
13 avril 03:32 7.5°C 93% 0.0 km/h N 1027.4 hPa 0 mm
13 avril 03:31 7.5°C 93% 0.0 km/h N 1027.5 hPa 0 mm
13 avril 03:30 7.5°C 93% 0.0 km/h N 1027.4 hPa 0 mm
13 avril 03:29 7.5°C 93% 0.0 km/h N 1027.4 hPa 0 mm
13 avril 03:28 7.5°C 93% 0.0 km/h N 1027.4 hPa 0 mm
13 avril 03:27 7.5°C 93% 0.0 km/h N 1027.4 hPa 0 mm
13 avril 03:26 7.4°C 93% 0.0 km/h N 1027.3 hPa 0 mm
13 avril 03:25 7.5°C 93% 0.0 km/h N 1027.4 hPa 0 mm
13 avril 03:24 7.5°C 93% 0.0 km/h N 1027.4 hPa 0 mm
13 avril 03:23 7.5°C 93% 0.0 km/h N 1027.4 hPa 0 mm
13 avril 03:22 7.5°C 93% 0.0 km/h N 1027.5 hPa 0 mm
13 avril 03:21 7.6°C 93% 0.0 km/h N 1027.4 hPa 0 mm
13 avril 03:20 7.7°C 93% 0.0 km/h N 1027.4 hPa 0 mm
13 avril 03:19 7.7°C 93% 0.0 km/h N 1027.4 hPa 0 mm
13 avril 03:18 7.7°C 93% 0.0 km/h N 1027.4 hPa 0 mm
13 avril 03:17 7.8°C 93% 0.0 km/h N 1027.4 hPa 0 mm
13 avril 03:16 7.9°C 93% 0.0 km/h N 1027.4 hPa 0 mm
13 avril 03:15 7.9°C 93% 0.0 km/h N 1027.4 hPa 0 mm
13 avril 03:14 7.9°C 93% 0.0 km/h N 1027.4 hPa 0 mm
13 avril 03:13 8.0°C 93% 0.0 km/h N 1027.4 hPa 0 mm
13 avril 03:12 8.0°C 93% 0.0 km/h N 1027.4 hPa 0 mm
13 avril 03:11 8.0°C 93% 0.0 km/h N 1027.4 hPa 0 mm
13 avril 03:10 7.9°C 93% 0.0 km/h N 1027.4 hPa 0 mm
13 avril 03:09 7.8°C 93% 0.0 km/h N 1027.5 hPa 0 mm
13 avril 03:08 7.8°C 93% 0.0 km/h N 1027.4 hPa 0 mm
13 avril 03:07 8.0°C 92% 0.0 km/h N 1027.5 hPa 0 mm
13 avril 03:06 8.0°C 92% 0.0 km/h N 1027.5 hPa 0 mm
13 avril 03:05 8.1°C 92% 0.0 km/h N 1027.4 hPa 0 mm
13 avril 03:04 8.0°C 93% 0.0 km/h N 1027.5 hPa 0 mm
13 avril 03:03 8.0°C 93% 0.0 km/h N 1027.5 hPa 0 mm
13 avril 03:02 8.0°C 92% 0.0 km/h N 1027.5 hPa 0 mm
13 avril 03:01 8.1°C 92% 0.0 km/h N 1027.5 hPa 0 mm
13 avril 03:00 8.0°C 93% 0.0 km/h N 1027.5 hPa 0 mm
13 avril 02:59 7.9°C 93% 0.0 km/h N 1027.5 hPa 0 mm
13 avril 02:58 7.9°C 93% 0.0 km/h N 1027.5 hPa 0 mm
13 avril 02:57 7.9°C 92% 0.0 km/h N 1027.5 hPa 0 mm
13 avril 02:56 7.8°C 92% 0.0 km/h N 1027.6 hPa 0 mm
13 avril 02:55 7.9°C 92% 0.0 km/h N 1027.6 hPa 0 mm
13 avril 02:54 7.8°C 92% 0.0 km/h N 1027.7 hPa 0 mm
13 avril 02:53 7.8°C 92% 0.0 km/h N 1027.8 hPa 0 mm
13 avril 02:52 7.8°C 92% 0.0 km/h N 1028.1 hPa 0 mm
13 avril 02:51 7.8°C 92% 0.0 km/h N 1028.2 hPa 0 mm
13 avril 02:50 7.8°C 92% 0.0 km/h N 1028.4 hPa 0 mm
13 avril 02:49 7.8°C 92% 0.0 km/h N 1028.4 hPa 0 mm
13 avril 02:48 7.9°C 92% 0.0 km/h N 1028.4 hPa 0 mm
13 avril 02:47 7.8°C 92% 0.0 km/h N 1028.5 hPa 0 mm
13 avril 02:46 7.8°C 92% 0.0 km/h N 1028.5 hPa 0 mm
13 avril 02:45 7.8°C 92% 0.0 km/h N 1028.4 hPa 0 mm
13 avril 02:44 7.8°C 92% 0.0 km/h N 1028.5 hPa 0 mm
13 avril 02:43 7.8°C 92% 0.0 km/h N 1028.5 hPa 0 mm
13 avril 02:42 7.9°C 92% 0.0 km/h N 1028.5 hPa 0 mm
13 avril 02:41 7.9°C 92% 0.0 km/h N 1028.5 hPa 0 mm
13 avril 02:40 7.9°C 92% 0.0 km/h N 1028.5 hPa 0 mm
13 avril 02:39 8.0°C 92% 0.0 km/h N 1028.5 hPa 0 mm
13 avril 02:38 7.9°C 92% 0.0 km/h NNE 1028.5 hPa 0 mm
13 avril 02:37 7.9°C 92% 0.0 km/h N 1028.5 hPa 0 mm
13 avril 02:36 7.9°C 91% 0.0 km/h N 1028.5 hPa 0 mm
13 avril 02:35 7.9°C 91% 0.0 km/h N 1028.5 hPa 0 mm
13 avril 02:34 8.0°C 91% 0.0 km/h N 1028.5 hPa 0 mm
13 avril 02:33 8.0°C 91% 0.0 km/h N 1028.6 hPa 0 mm
13 avril 02:32 8.2°C 91% 0.0 km/h N 1028.6 hPa 0 mm
13 avril 02:31 8.1°C 91% 0.0 km/h N 1028.6 hPa 0 mm
13 avril 02:30 8.2°C 91% 0.0 km/h N 1028.6 hPa 0 mm
13 avril 02:29 8.2°C 91% 0.0 km/h N 1028.6 hPa 0 mm
13 avril 02:28 8.2°C 91% 0.0 km/h N 1028.6 hPa 0 mm
13 avril 02:27 8.3°C 91% 0.0 km/h N 1028.6 hPa 0 mm
13 avril 02:26 8.4°C 91% 0.0 km/h N 1028.6 hPa 0 mm
13 avril 02:25 8.4°C 91% 0.0 km/h N 1028.6 hPa 0 mm
13 avril 02:24 8.4°C 91% 0.0 km/h N 1028.7 hPa 0 mm
13 avril 02:23 8.4°C 91% 0.0 km/h N 1028.7 hPa 0 mm
13 avril 02:22 8.4°C 91% 0.0 km/h N 1028.7 hPa 0 mm
13 avril 02:21 8.4°C 91% 0.0 km/h N 1028.7 hPa 0 mm
13 avril 02:20 8.6°C 91% 0.0 km/h N 1028.7 hPa 0 mm
13 avril 02:19 8.6°C 91% 0.0 km/h N 1028.7 hPa 0 mm
13 avril 02:18 8.7°C 91% 0.0 km/h N 1028.7 hPa 0 mm
13 avril 02:17 8.8°C 91% 0.0 km/h N 1028.7 hPa 0 mm
13 avril 02:16 8.9°C 91% 0.0 km/h N 1028.7 hPa 0 mm
13 avril 02:15 8.9°C 91% 0.0 km/h N 1028.7 hPa 0 mm
13 avril 02:14 8.9°C 91% 0.0 km/h N 1028.7 hPa 0 mm
13 avril 02:13 8.9°C 91% 0.0 km/h N 1028.7 hPa 0 mm
13 avril 02:12 8.8°C 91% 0.0 km/h N 1028.6 hPa 0 mm
13 avril 02:11 8.7°C 91% 0.0 km/h N 1028.6 hPa 0 mm
13 avril 02:10 8.6°C 91% 0.0 km/h N 1028.7 hPa 0 mm
13 avril 02:09 8.3°C 91% 0.0 km/h N 1028.7 hPa 0 mm
13 avril 02:08 8.3°C 91% 0.0 km/h N 1028.7 hPa 0 mm
13 avril 02:07 8.3°C 91% 0.0 km/h N 1028.7 hPa 0 mm
13 avril 02:06 8.4°C 91% 0.0 km/h N 1028.7 hPa 0 mm
13 avril 02:05 8.4°C 91% 0.0 km/h N 1028.8 hPa 0 mm
13 avril 02:04 8.5°C 91% 0.0 km/h N 1028.7 hPa 0 mm
13 avril 02:03 8.4°C 91% 0.0 km/h N 1028.7 hPa 0 mm
13 avril 02:02 8.6°C 91% 0.0 km/h N 1028.8 hPa 0 mm
13 avril 02:01 8.6°C 91% 0.0 km/h N 1028.8 hPa 0 mm
13 avril 02:00 8.6°C 91% 0.0 km/h N 1028.7 hPa 0 mm
13 avril 01:59 8.6°C 91% 0.0 km/h N 1028.8 hPa 0 mm
13 avril 01:58 8.5°C 91% 0.0 km/h N 1028.8 hPa 0 mm
13 avril 01:57 8.6°C 91% 0.0 km/h N 1028.8 hPa 0 mm
13 avril 01:56 8.7°C 91% 0.0 km/h N 1028.8 hPa 0 mm
13 avril 01:55 8.7°C 91% 0.0 km/h N 1028.9 hPa 0 mm
13 avril 01:54 8.6°C 91% 0.0 km/h N 1028.8 hPa 0 mm
13 avril 01:53 8.7°C 91% 0.0 km/h N 1028.9 hPa 0 mm
13 avril 01:52 8.7°C 91% 0.0 km/h N 1028.8 hPa 0 mm
13 avril 01:51 8.9°C 91% 0.0 km/h N 1028.9 hPa 0 mm
13 avril 01:50 8.9°C 91% 0.0 km/h N 1028.9 hPa 0 mm
13 avril 01:49 8.8°C 91% 0.0 km/h N 1028.9 hPa 0 mm
13 avril 01:48 8.6°C 91% 0.0 km/h N 1028.9 hPa 0 mm
13 avril 01:47 8.6°C 91% 0.0 km/h N 1028.9 hPa 0 mm
13 avril 01:46 8.6°C 91% 0.0 km/h N 1028.9 hPa 0 mm
13 avril 01:45 8.6°C 91% 0.0 km/h N 1029.0 hPa 0 mm
13 avril 01:44 8.5°C 91% 0.0 km/h N 1029.0 hPa 0 mm
13 avril 01:43 8.4°C 90% 0.0 km/h N 1029.0 hPa 0 mm
13 avril 01:42 8.4°C 90% 0.0 km/h N 1029.0 hPa 0 mm
13 avril 01:41 8.5°C 90% 0.0 km/h N 1029.0 hPa 0 mm
13 avril 01:40 8.6°C 90% 0.0 km/h N 1029.1 hPa 0 mm
13 avril 01:39 8.7°C 90% 0.0 km/h N 1029.1 hPa 0 mm
13 avril 01:38 8.5°C 90% 0.0 km/h N 1029.1 hPa 0 mm
13 avril 01:37 8.5°C 90% 0.0 km/h N 1029.1 hPa 0 mm
13 avril 01:36 8.5°C 90% 0.0 km/h N 1029.0 hPa 0 mm
13 avril 01:35 8.7°C 90% 0.0 km/h N 1029.0 hPa 0 mm
13 avril 01:34 8.7°C 90% 0.0 km/h N 1029.1 hPa 0 mm
13 avril 01:33 8.8°C 90% 0.0 km/h N 1029.0 hPa 0 mm
13 avril 01:32 8.8°C 90% 0.0 km/h N 1029.0 hPa 0 mm
13 avril 01:31 8.8°C 90% 0.0 km/h N 1029.0 hPa 0 mm
13 avril 01:30 8.7°C 90% 0.0 km/h N 1029.0 hPa 0 mm
13 avril 01:29 8.6°C 89% 0.0 km/h NNE 1029.0 hPa 0 mm
13 avril 01:28 8.7°C 89% 0.0 km/h N 1029.0 hPa 0 mm
13 avril 01:27 8.7°C 89% 0.0 km/h N 1029.0 hPa 0 mm
13 avril 01:26 8.8°C 89% 0.0 km/h N 1029.0 hPa 0 mm
13 avril 01:25 8.9°C 89% 0.0 km/h N 1029.0 hPa 0 mm
13 avril 01:24 9.1°C 89% 0.0 km/h N 1029.0 hPa 0 mm
13 avril 01:23 9.1°C 89% 0.0 km/h N 1029.0 hPa 0 mm
13 avril 01:22 9.2°C 89% 0.0 km/h N 1029.0 hPa 0 mm
13 avril 01:21 9.0°C 89% 0.0 km/h N 1029.0 hPa 0 mm
13 avril 01:20 9.0°C 89% 0.0 km/h N 1029.0 hPa 0 mm
13 avril 01:19 9.0°C 89% 0.0 km/h N 1029.1 hPa 0 mm
13 avril 01:18 9.0°C 89% 0.0 km/h N 1029.1 hPa 0 mm
13 avril 01:17 9.0°C 89% 0.0 km/h N 1029.0 hPa 0 mm
13 avril 01:16 9.0°C 89% 0.0 km/h N 1029.0 hPa 0 mm
13 avril 01:15 9.0°C 89% 0.0 km/h N 1029.0 hPa 0 mm
13 avril 01:14 9.1°C 89% 0.0 km/h N 1029.1 hPa 0 mm
13 avril 01:13 9.0°C 88% 0.0 km/h N 1029.1 hPa 0 mm
13 avril 01:12 9.1°C 88% 0.0 km/h N 1029.0 hPa 0 mm
13 avril 01:11 9.2°C 88% 0.0 km/h N 1029.1 hPa 0 mm
13 avril 01:10 9.3°C 88% 0.0 km/h N 1029.1 hPa 0 mm
13 avril 01:09 9.3°C 88% 0.0 km/h N 1029.1 hPa 0 mm
13 avril 01:08 9.4°C 88% 0.0 km/h N 1029.1 hPa 0 mm
13 avril 01:07 9.5°C 88% 0.0 km/h N 1029.1 hPa 0 mm
13 avril 01:06 9.5°C 88% 0.0 km/h N 1029.1 hPa 0 mm
13 avril 01:05 9.6°C 88% 0.0 km/h N 1029.1 hPa 0 mm
13 avril 01:04 9.6°C 88% 0.0 km/h N 1029.1 hPa 0 mm
13 avril 01:03 9.6°C 88% 0.0 km/h N 1029.1 hPa 0 mm
13 avril 01:02 9.3°C 88% 0.0 km/h N 1029.1 hPa 0 mm
13 avril 01:01 9.3°C 88% 0.0 km/h N 1029.1 hPa 0 mm
13 avril 01:00 9.4°C 88% 0.0 km/h N 1029.1 hPa 0 mm
13 avril 00:59 9.5°C 88% 0.0 km/h N 1029.1 hPa 0 mm
13 avril 00:58 9.5°C 88% 0.0 km/h NE 1029.1 hPa 0 mm
13 avril 00:57 9.5°C 88% 0.0 km/h N 1029.1 hPa 0 mm
13 avril 00:56 9.4°C 88% 0.0 km/h N 1029.1 hPa 0 mm
13 avril 00:55 9.4°C 88% 0.0 km/h N 1029.1 hPa 0 mm
13 avril 00:54 9.4°C 88% 0.0 km/h N 1029.1 hPa 0 mm
13 avril 00:53 9.5°C 88% 0.0 km/h N 1029.1 hPa 0 mm
13 avril 00:52 9.5°C 88% 0.0 km/h N 1029.1 hPa 0 mm
13 avril 00:51 9.5°C 88% 0.0 km/h N 1029.1 hPa 0 mm
13 avril 00:50 9.5°C 87% 0.0 km/h N 1029.1 hPa 0 mm
13 avril 00:49 9.5°C 87% 0.0 km/h N 1029.2 hPa 0 mm
13 avril 00:48 9.5°C 87% 0.0 km/h N 1029.1 hPa 0 mm
13 avril 00:47 9.6°C 87% 0.0 km/h N 1029.2 hPa 0 mm
13 avril 00:46 9.6°C 87% 0.0 km/h N 1029.2 hPa 0 mm
13 avril 00:45 9.6°C 87% 0.0 km/h N 1029.2 hPa 0 mm
13 avril 00:44 9.6°C 87% 0.0 km/h N 1029.2 hPa 0 mm
13 avril 00:43 9.6°C 87% 0.0 km/h N 1029.2 hPa 0 mm
13 avril 00:42 9.6°C 86% 0.0 km/h N 1029.2 hPa 0 mm
13 avril 00:41 9.8°C 86% 0.0 km/h N 1029.2 hPa 0 mm
13 avril 00:40 10.0°C 86% 0.0 km/h N 1029.2 hPa 0 mm
13 avril 00:39 10.0°C 86% 0.0 km/h N 1029.2 hPa 0 mm
13 avril 00:38 10.1°C 86% 0.0 km/h N 1029.2 hPa 0 mm
13 avril 00:37 10.2°C 86% 0.0 km/h N 1029.2 hPa 0 mm
13 avril 00:36 10.3°C 86% 0.0 km/h N 1029.2 hPa 0 mm
13 avril 00:35 10.3°C 86% 0.0 km/h N 1029.2 hPa 0 mm
13 avril 00:34 10.2°C 86% 0.0 km/h N 1029.1 hPa 0 mm
13 avril 00:33 10.2°C 86% 0.0 km/h N 1029.2 hPa 0 mm
13 avril 00:32 10.2°C 86% 0.0 km/h N 1029.2 hPa 0 mm
13 avril 00:31 10.2°C 87% 0.0 km/h N 1029.2 hPa 0 mm
13 avril 00:30 10.2°C 87% 0.0 km/h N 1029.2 hPa 0 mm
13 avril 00:29 10.0°C 86% 0.0 km/h N 1029.2 hPa 0 mm
13 avril 00:28 10.0°C 87% 0.0 km/h N 1029.2 hPa 0 mm
13 avril 00:27 10.0°C 87% 0.0 km/h N 1029.2 hPa 0 mm
13 avril 00:26 10.1°C 86% 0.0 km/h N 1029.2 hPa 0 mm
13 avril 00:25 10.0°C 87% 0.0 km/h N 1029.2 hPa 0 mm
13 avril 00:24 9.8°C 87% 0.0 km/h N 1029.2 hPa 0 mm
13 avril 00:23 9.8°C 87% 0.0 km/h N 1029.2 hPa 0 mm
13 avril 00:22 9.8°C 87% 0.0 km/h N 1029.2 hPa 0 mm
13 avril 00:21 9.8°C 87% 0.0 km/h N 1029.1 hPa 0 mm
13 avril 00:20 9.8°C 87% 0.0 km/h N 1029.2 hPa 0 mm
13 avril 00:19 9.8°C 87% 0.0 km/h N 1029.1 hPa 0 mm
13 avril 00:18 9.7°C 87% 0.0 km/h N 1029.1 hPa 0 mm
13 avril 00:17 9.7°C 87% 0.0 km/h N 1029.2 hPa 0 mm
13 avril 00:16 9.6°C 87% 0.0 km/h N 1029.2 hPa 0 mm
13 avril 00:15 9.6°C 86% 0.0 km/h N 1029.2 hPa 0 mm
13 avril 00:14 9.7°C 86% 0.0 km/h N 1029.2 hPa 0 mm
13 avril 00:13 9.9°C 86% 0.0 km/h NE 1029.1 hPa 0 mm
13 avril 00:12 9.9°C 86% 0.0 km/h N 1029.1 hPa 0 mm
13 avril 00:11 10.1°C 86% 0.0 km/h NE 1029.1 hPa 0 mm
13 avril 00:10 10.1°C 86% 0.0 km/h NNE 1029.1 hPa 0 mm
13 avril 00:09 10.1°C 85% 0.0 km/h N 1029.1 hPa 0 mm
13 avril 00:08 10.1°C 85% 0.0 km/h N 1029.1 hPa 0 mm
13 avril 00:07 10.2°C 85% 0.0 km/h NE 1029.1 hPa 0 mm
13 avril 00:06 10.2°C 85% 0.0 km/h NE 1029.1 hPa 0 mm
13 avril 00:05 10.2°C 85% 0.0 km/h N 1029.1 hPa 0 mm
13 avril 00:04 10.2°C 86% 0.0 km/h N 1029.1 hPa 0 mm
13 avril 00:03 10.2°C 85% 0.0 km/h N 1029.0 hPa 0 mm
13 avril 00:02 10.1°C 85% 0.0 km/h N 1029.1 hPa 0 mm
13 avril 00:01 10.1°C 85% 0.0 km/h N 1029.1 hPa 0 mm
13 avril 00:00 10.0°C 85% 0.0 km/h N 1029.1 hPa 0 mm
12 avril 23:59 10.1°C 85% 0.0 km/h N 1029.0 hPa 0 mm
12 avril 23:58 10.4°C 84% 0.0 km/h N 1029.0 hPa 0 mm
12 avril 23:57 10.4°C 84% 0.0 km/h N 1029.0 hPa 0 mm
12 avril 23:56 10.4°C 84% 0.0 km/h N 1029.0 hPa 0 mm
12 avril 23:55 10.5°C 84% 0.0 km/h N 1029.0 hPa 0 mm
12 avril 23:54 10.5°C 84% 0.0 km/h N 1029.0 hPa 0 mm
12 avril 23:53 10.6°C 84% 0.0 km/h N 1029.0 hPa 0 mm
12 avril 23:52 10.5°C 84% 0.0 km/h N 1029.0 hPa 0 mm
12 avril 23:51 10.7°C 83% 0.0 km/h N 1029.0 hPa 0 mm
12 avril 23:50 10.9°C 83% 0.0 km/h N 1029.0 hPa 0 mm
12 avril 23:49 10.9°C 83% 0.0 km/h N 1029.0 hPa 0 mm
12 avril 23:48 11.0°C 83% 0.0 km/h N 1029.0 hPa 0 mm
12 avril 23:47 10.8°C 83% 0.0 km/h N 1029.0 hPa 0 mm
12 avril 23:46 10.8°C 83% 0.0 km/h N 1029.0 hPa 0 mm
12 avril 23:45 10.7°C 84% 0.0 km/h N 1029.0 hPa 0 mm
12 avril 23:44 10.7°C 84% 0.0 km/h N 1029.0 hPa 0 mm
12 avril 23:43 10.7°C 84% 0.0 km/h N 1029.1 hPa 0 mm
12 avril 23:42 10.6°C 83% 0.0 km/h N 1029.0 hPa 0 mm
12 avril 23:41 10.8°C 83% 0.0 km/h N 1029.1 hPa 0 mm
12 avril 23:40 10.8°C 83% 0.0 km/h N 1029.1 hPa 0 mm
12 avril 23:39 10.6°C 83% 0.0 km/h N 1029.0 hPa 0 mm
12 avril 23:38 10.7°C 83% 0.0 km/h N 1029.1 hPa 0 mm
12 avril 23:37 11.6°C 81% 0.0 km/h N 1029.1 hPa 0 mm
12 avril 23:36 11.6°C 81% 0.0 km/h NNE 1029.1 hPa 0 mm
12 avril 23:35 11.6°C 81% 0.0 km/h N 1029.0 hPa 0 mm
12 avril 23:34 11.6°C 81% 0.0 km/h NNE 1029.0 hPa 0 mm
12 avril 23:33 11.6°C 81% 0.0 km/h N 1029.0 hPa 0 mm
12 avril 23:32 11.5°C 81% 0.0 km/h N 1029.0 hPa 0 mm
12 avril 23:31 11.5°C 81% 0.0 km/h N 1029.0 hPa 0 mm
12 avril 23:30 11.6°C 80% 0.0 km/h N 1029.0 hPa 0 mm
12 avril 23:29 11.8°C 80% 0.0 km/h N 1029.0 hPa 0 mm
12 avril 23:28 11.8°C 80% 0.0 km/h N 1029.0 hPa 0 mm
12 avril 23:27 11.8°C 80% 0.0 km/h N 1029.0 hPa 0 mm
12 avril 23:26 12.0°C 80% 0.0 km/h N 1029.0 hPa 0 mm
12 avril 23:25 12.0°C 80% 0.0 km/h N 1029.0 hPa 0 mm
12 avril 23:24 11.8°C 81% 0.0 km/h N 1029.0 hPa 0 mm
12 avril 23:23 11.3°C 81% 0.0 km/h NNE 1029.0 hPa 0 mm
12 avril 23:22 11.3°C 81% 0.0 km/h NE 1029.0 hPa 0 mm
12 avril 23:21 11.3°C 81% 0.0 km/h NE 1029.0 hPa 0 mm
12 avril 23:20 11.5°C 81% 0.0 km/h N 1029.0 hPa 0 mm
12 avril 23:19 11.5°C 81% 0.0 km/h N 1029.0 hPa 0 mm
12 avril 23:18 11.6°C 81% 0.0 km/h N 1028.9 hPa 0 mm
12 avril 23:17 11.7°C 81% 0.0 km/h N 1028.9 hPa 0 mm
12 avril 23:16 11.3°C 82% 0.0 km/h N 1028.9 hPa 0 mm
12 avril 23:15 11.3°C 81% 0.0 km/h NE 1028.8 hPa 0 mm
12 avril 23:14 11.3°C 81% 0.0 km/h N 1028.8 hPa 0 mm
12 avril 23:13 11.3°C 81% 0.0 km/h N 1028.8 hPa 0 mm
12 avril 23:12 11.3°C 81% 0.0 km/h N 1028.7 hPa 0 mm
12 avril 23:11 11.3°C 81% 0.0 km/h N 1028.6 hPa 0 mm
12 avril 23:10 11.3°C 81% 0.0 km/h N 1028.5 hPa 0 mm
12 avril 23:09 11.6°C 80% 0.0 km/h N 1028.4 hPa 0 mm
12 avril 23:08 11.9°C 80% 0.0 km/h N 1028.4 hPa 0 mm
12 avril 23:07 11.9°C 80% 0.0 km/h N 1028.4 hPa 0 mm
12 avril 23:06 11.9°C 80% 0.0 km/h N 1028.4 hPa 0 mm
12 avril 23:05 12.1°C 79% 0.0 km/h N 1028.4 hPa 0 mm
12 avril 23:04 12.3°C 79% 0.0 km/h E 1028.4 hPa 0 mm
12 avril 23:03 11.9°C 81% 0.0 km/h NE 1028.4 hPa 0 mm
12 avril 23:02 11.7°C 81% 0.0 km/h N 1028.4 hPa 0 mm
12 avril 23:01 11.2°C 82% 0.0 km/h N 1028.3 hPa 0 mm
12 avril 23:00 11.2°C 82% 0.0 km/h N 1028.3 hPa 0 mm
12 avril 22:59 11.4°C 81% 0.0 km/h N 1028.4 hPa 0 mm
12 avril 22:58 11.3°C 82% 0.0 km/h N 1028.4 hPa 0 mm
12 avril 22:57 11.2°C 81% 0.0 km/h NNE 1028.4 hPa 0 mm
12 avril 22:56 11.7°C 80% 0.0 km/h NE 1028.4 hPa 0 mm
12 avril 22:55 11.7°C 80% 0.0 km/h NE 1028.4 hPa 0 mm
12 avril 22:54 11.9°C 79% 0.0 km/h NE 1028.4 hPa 0 mm
12 avril 22:53 11.9°C 79% 0.0 km/h N 1028.4 hPa 0 mm
12 avril 22:52 12.1°C 79% 0.0 km/h N 1028.4 hPa 0 mm
12 avril 22:51 12.3°C 79% 0.0 km/h N 1028.3 hPa 0 mm
12 avril 22:50 12.3°C 79% 0.0 km/h N 1028.3 hPa 0 mm
12 avril 22:49 12.3°C 79% 0.0 km/h NNE 1028.3 hPa 0 mm
12 avril 22:48 12.4°C 79% 0.0 km/h NNE 1028.3 hPa 0 mm
12 avril 22:47 12.6°C 79% 0.0 km/h N 1028.3 hPa 0 mm
12 avril 22:46 12.6°C 79% 0.0 km/h N 1028.3 hPa 0 mm
12 avril 22:45 12.4°C 80% 0.0 km/h N 1028.3 hPa 0 mm
12 avril 22:44 12.1°C 80% 0.0 km/h N 1028.3 hPa 0 mm
12 avril 22:43 11.9°C 81% 0.0 km/h N 1028.3 hPa 0 mm
12 avril 22:42 11.8°C 81% 0.0 km/h N 1028.3 hPa 0 mm
12 avril 22:41 11.8°C 80% 0.0 km/h N 1028.3 hPa 0 mm
12 avril 22:40 11.8°C 80% 0.0 km/h N 1028.3 hPa 0 mm
12 avril 22:39 11.9°C 80% 0.0 km/h N 1028.3 hPa 0 mm
12 avril 22:38 12.1°C 79% 0.0 km/h N 1028.3 hPa 0 mm
12 avril 22:37 12.3°C 79% 0.0 km/h N 1028.3 hPa 0 mm
12 avril 22:36 12.3°C 79% 0.0 km/h NE 1028.3 hPa 0 mm
12 avril 22:35 12.1°C 80% 0.0 km/h ENE 1028.3 hPa 0 mm
12 avril 22:34 12.1°C 80% 0.0 km/h NNE 1028.4 hPa 0 mm
12 avril 22:33 12.2°C 79% 0.0 km/h NNE 1028.4 hPa 0 mm
12 avril 22:32 12.2°C 79% 0.0 km/h ENE 1028.3 hPa 0 mm
12 avril 22:31 12.4°C 78% 0.0 km/h E 1028.4 hPa 0 mm
12 avril 22:30 12.6°C 78% 0.0 km/h NE 1028.4 hPa 0 mm
12 avril 22:29 12.8°C 77% 0.0 km/h ENE 1028.3 hPa 0 mm
12 avril 22:28 12.7°C 78% 0.0 km/h N 1028.3 hPa 0 mm
12 avril 22:27 12.7°C 78% 0.0 km/h NE 1028.3 hPa 0 mm
12 avril 22:26 12.7°C 77% 0.0 km/h NE 1028.3 hPa 0 mm
12 avril 22:25 12.6°C 77% 0.0 km/h NNE 1028.3 hPa 0 mm
12 avril 22:24 12.9°C 77% 0.0 km/h N 1028.3 hPa 0 mm
12 avril 22:23 13.5°C 75% 0.0 km/h NE 1028.3 hPa 0 mm
12 avril 22:22 13.5°C 75% 0.0 km/h NE 1028.3 hPa 0 mm
12 avril 22:21 13.5°C 75% 0.0 km/h ENE 1028.3 hPa 0 mm
12 avril 22:20 13.6°C 75% 0.0 km/h N 1028.3 hPa 0 mm
12 avril 22:19 13.7°C 75% 0.0 km/h E 1028.2 hPa 0 mm
12 avril 22:18 12.7°C 78% 0.0 km/h NNE 1028.3 hPa 0 mm
12 avril 22:17 12.5°C 78% 0.0 km/h E 1028.3 hPa 0 mm
12 avril 22:16 12.8°C 77% 0.0 km/h ENE 1028.3 hPa 0 mm
12 avril 22:15 13.0°C 77% 0.0 km/h N 1028.2 hPa 0 mm
12 avril 22:14 12.9°C 77% 0.0 km/h NNE 1028.3 hPa 0 mm
12 avril 22:13 13.0°C 77% 0.0 km/h ENE 1028.3 hPa 0 mm
12 avril 22:12 13.3°C 77% 0.0 km/h NNE 1028.2 hPa 0 mm
12 avril 22:11 12.7°C 79% 0.0 km/h NE 1028.3 hPa 0 mm
12 avril 22:10 12.7°C 79% 0.0 km/h N 1028.3 hPa 0 mm
12 avril 22:09 12.4°C 80% 0.0 km/h N 1028.2 hPa 0 mm
12 avril 22:08 12.4°C 80% 0.0 km/h N 1028.2 hPa 0 mm
12 avril 22:07 12.4°C 80% 0.0 km/h N 1028.3 hPa 0 mm
12 avril 22:06 12.3°C 81% 0.0 km/h N 1028.3 hPa 0 mm
12 avril 22:05 12.1°C 81% 0.0 km/h N 1028.2 hPa 0 mm
12 avril 22:04 12.0°C 81% 0.0 km/h N 1028.2 hPa 0 mm
12 avril 22:03 11.8°C 81% 0.0 km/h N 1028.3 hPa 0 mm
12 avril 22:02 11.8°C 81% 0.0 km/h N 1028.2 hPa 0 mm
12 avril 22:01 11.9°C 81% 0.0 km/h N 1028.3 hPa 0 mm
12 avril 22:00 11.7°C 82% 0.0 km/h N 1028.3 hPa 0 mm
12 avril 21:59 11.9°C 82% 0.0 km/h N 1028.2 hPa 0 mm
12 avril 21:58 11.9°C 82% 0.0 km/h NE 1028.2 hPa 0 mm
12 avril 21:57 11.8°C 82% 0.0 km/h N 1028.2 hPa 0 mm
12 avril 21:56 11.9°C 82% 0.0 km/h N 1028.2 hPa 0 mm
12 avril 21:55 11.6°C 83% 0.0 km/h N 1028.2 hPa 0 mm
12 avril 21:54 11.3°C 83% 0.0 km/h N 1028.2 hPa 0 mm
12 avril 21:53 11.3°C 83% 0.0 km/h N 1028.2 hPa 0 mm
12 avril 21:52 11.2°C 83% 0.0 km/h N 1028.2 hPa 0 mm
12 avril 21:51 10.9°C 84% 0.0 km/h N 1028.2 hPa 0 mm
12 avril 21:50 10.9°C 84% 0.0 km/h N 1028.2 hPa 0 mm
12 avril 21:49 10.9°C 83% 0.0 km/h N 1028.2 hPa 0 mm
12 avril 21:48 10.9°C 83% 0.0 km/h N 1028.2 hPa 0 mm
12 avril 21:47 11.0°C 82% 0.0 km/h NNE 1028.2 hPa 0 mm
12 avril 21:46 11.2°C 82% 0.0 km/h N 1028.2 hPa 0 mm
12 avril 21:45 11.4°C 81% 0.0 km/h NE 1028.2 hPa 0 mm
12 avril 21:44 11.6°C 81% 0.0 km/h ENE 1028.2 hPa 0 mm
12 avril 21:43 11.6°C 81% 0.0 km/h NE 1028.2 hPa 0 mm
12 avril 21:42 11.7°C 81% 0.0 km/h N 1028.2 hPa 0 mm
12 avril 21:41 11.8°C 80% 0.0 km/h N 1028.2 hPa 0 mm
12 avril 21:40 12.0°C 80% 0.0 km/h N 1028.2 hPa 0 mm
12 avril 21:39 12.2°C 80% 0.0 km/h N 1028.2 hPa 0 mm
12 avril 21:38 12.3°C 80% 0.0 km/h N 1028.1 hPa 0 mm
12 avril 21:37 12.3°C 80% 0.0 km/h NNE 1028.1 hPa 0 mm
12 avril 21:36 12.4°C 79% 0.0 km/h N 1028.1 hPa 0 mm
12 avril 21:35 12.4°C 79% 0.0 km/h N 1028.1 hPa 0 mm
12 avril 21:34 12.3°C 79% 0.0 km/h N 1028.1 hPa 0 mm
12 avril 21:33 12.4°C 79% 0.0 km/h N 1028.1 hPa 0 mm
12 avril 21:32 12.4°C 79% 0.0 km/h N 1028.1 hPa 0 mm
12 avril 21:31 12.5°C 78% 0.0 km/h N 1028.1 hPa 0 mm
12 avril 21:30 12.5°C 78% 0.0 km/h N 1028.1 hPa 0 mm
12 avril 21:29 12.6°C 78% 0.0 km/h N 1028.1 hPa 0 mm
12 avril 21:28 12.7°C 78% 0.0 km/h N 1028.1 hPa 0 mm
12 avril 21:27 12.8°C 77% 0.0 km/h NE 1028.1 hPa 0 mm
12 avril 21:26 13.0°C 77% 0.0 km/h E 1028.1 hPa 0 mm
12 avril 21:25 13.0°C 77% 0.0 km/h NNE 1028.1 hPa 0 mm
12 avril 21:24 13.1°C 77% 0.0 km/h ESE 1028.1 hPa 0 mm
12 avril 21:23 13.2°C 77% 0.0 km/h E 1028.1 hPa 0 mm
12 avril 21:22 13.2°C 77% 0.0 km/h E 1028.1 hPa 0 mm
12 avril 21:21 13.3°C 77% 0.0 km/h ESE 1028.1 hPa 0 mm
12 avril 21:20 13.2°C 78% 0.0 km/h E 1028.1 hPa 0 mm
12 avril 21:19 13.1°C 78% 0.0 km/h NNE 1028.1 hPa 0 mm
12 avril 21:18 13.2°C 77% 0.0 km/h N 1028.1 hPa 0 mm
12 avril 21:17 13.3°C 78% 0.0 km/h N 1028.1 hPa 0 mm
12 avril 21:16 13.3°C 77% 0.0 km/h N 1028.0 hPa 0 mm
12 avril 21:15 13.3°C 77% 0.0 km/h N 1028.0 hPa 0 mm
12 avril 21:14 13.3°C 77% 0.0 km/h N 1028.0 hPa 0 mm
12 avril 21:13 13.4°C 77% 0.0 km/h N 1028.0 hPa 0 mm
12 avril 21:12 13.4°C 77% 0.0 km/h N 1028.0 hPa 0 mm
12 avril 21:11 13.3°C 77% 0.0 km/h N 1027.9 hPa 0 mm
12 avril 21:10 13.2°C 78% 0.0 km/h NE 1027.9 hPa 0 mm
12 avril 21:09 13.2°C 77% 0.0 km/h NE 1027.9 hPa 0 mm
12 avril 21:08 13.1°C 78% 0.0 km/h N 1027.9 hPa 0 mm
12 avril 21:07 12.7°C 78% 0.0 km/h ENE 1027.9 hPa 0 mm
12 avril 21:06 12.7°C 78% 0.0 km/h N 1027.9 hPa 0 mm
12 avril 21:05 12.7°C 78% 0.0 km/h NE 1027.9 hPa 0 mm
12 avril 21:04 12.6°C 78% 0.0 km/h N 1027.8 hPa 0 mm
12 avril 21:03 12.7°C 77% 0.0 km/h N 1027.8 hPa 0 mm
12 avril 21:02 12.9°C 77% 0.0 km/h N 1027.8 hPa 0 mm
12 avril 21:01 13.3°C 76% 0.0 km/h N 1027.8 hPa 0 mm
12 avril 21:00 13.3°C 76% 0.0 km/h N 1027.9 hPa 0 mm
12 avril 20:59 13.5°C 75% 0.0 km/h NE 1027.9 hPa 0 mm
12 avril 20:58 13.7°C 74% 0.0 km/h NE 1027.8 hPa 0 mm
12 avril 20:57 14.0°C 74% 0.0 km/h N 1027.8 hPa 0 mm
12 avril 20:56 14.0°C 74% 0.0 km/h N 1027.8 hPa 0 mm
12 avril 20:55 14.0°C 74% 0.0 km/h N 1027.8 hPa 0 mm
12 avril 20:54 14.0°C 74% 0.0 km/h N 1027.8 hPa 0 mm
12 avril 20:53 14.2°C 74% 0.0 km/h N 1027.8 hPa 0 mm
12 avril 20:52 14.2°C 74% 0.0 km/h NNE 1027.8 hPa 0 mm
12 avril 20:51 14.2°C 74% 0.0 km/h N 1027.7 hPa 0 mm
12 avril 20:50 14.3°C 73% 0.0 km/h N 1027.6 hPa 0 mm
12 avril 20:49 14.3°C 73% 0.0 km/h N 1027.6 hPa 0 mm
12 avril 20:48 14.7°C 72% 0.0 km/h N 1027.6 hPa 0 mm
12 avril 20:47 14.7°C 72% 0.0 km/h N 1027.6 hPa 0 mm
12 avril 20:46 14.6°C 72% 0.0 km/h N 1027.6 hPa 0 mm
12 avril 20:45 14.8°C 72% 0.0 km/h N 1027.6 hPa 0 mm
12 avril 20:44 15.1°C 70% 0.0 km/h NNE 1027.6 hPa 0 mm
12 avril 20:43 15.1°C 70% 0.0 km/h NNE 1027.6 hPa 0 mm
12 avril 20:42 15.1°C 70% 0.0 km/h N 1027.5 hPa 0 mm
12 avril 20:41 15.1°C 70% 0.0 km/h NNE 1027.5 hPa 0 mm
12 avril 20:40 15.3°C 70% 0.0 km/h N 1027.5 hPa 0 mm
12 avril 20:39 15.3°C 69% 0.0 km/h N 1027.5 hPa 0 mm
12 avril 20:38 15.4°C 68% 0.0 km/h NNE 1027.5 hPa 0 mm
12 avril 20:37 15.5°C 67% 0.0 km/h N 1027.5 hPa 0 mm
12 avril 20:36 15.5°C 67% 0.0 km/h N 1027.5 hPa 0 mm
12 avril 20:35 15.5°C 67% 0.0 km/h N 1027.5 hPa 0 mm
12 avril 20:34 15.5°C 67% 0.0 km/h N 1027.5 hPa 0 mm
12 avril 20:33 15.5°C 67% 0.0 km/h N 1027.5 hPa 0 mm
12 avril 20:32 15.5°C 67% 0.0 km/h N 1027.4 hPa 0 mm
12 avril 20:31 15.5°C 67% 0.0 km/h N 1027.4 hPa 0 mm
12 avril 20:30 15.7°C 67% 0.0 km/h N 1027.4 hPa 0 mm
12 avril 20:29 15.7°C 67% 0.0 km/h N 1027.4 hPa 0 mm
12 avril 20:28 15.8°C 66% 0.0 km/h ENE 1027.4 hPa 0 mm
12 avril 20:27 16.0°C 66% 0.0 km/h NNE 1027.4 hPa 0 mm
12 avril 20:26 16.0°C 66% 0.0 km/h NE 1027.4 hPa 0 mm
12 avril 20:25 16.0°C 66% 0.0 km/h NNE 1027.5 hPa 0 mm
12 avril 20:24 16.1°C 65% 0.0 km/h N 1027.5 hPa 0 mm
12 avril 20:23 16.1°C 65% 0.0 km/h N 1027.5 hPa 0 mm
12 avril 20:22 16.4°C 64% 0.0 km/h N 1027.5 hPa 0 mm
12 avril 20:21 16.4°C 64% 0.0 km/h N 1027.4 hPa 0 mm
12 avril 20:20 16.4°C 64% 0.0 km/h NE 1027.4 hPa 0 mm
12 avril 20:19 16.4°C 64% 0.0 km/h N 1027.4 hPa 0 mm
12 avril 20:18 16.7°C 63% 0.0 km/h NNE 1027.5 hPa 0 mm
12 avril 20:17 16.7°C 63% 0.0 km/h NNE 1027.5 hPa 0 mm
12 avril 20:16 16.7°C 63% 0.0 km/h N 1027.4 hPa 0 mm
12 avril 20:15 16.7°C 63% 0.0 km/h NE 1027.4 hPa 0 mm
12 avril 20:14 16.7°C 63% 0.0 km/h NE 1027.4 hPa 0 mm
12 avril 20:13 17.1°C 63% 0.0 km/h NE 1027.5 hPa 0 mm
12 avril 20:12 17.1°C 63% 0.0 km/h NE 1027.5 hPa 0 mm
12 avril 20:11 17.1°C 63% 0.0 km/h E 1027.5 hPa 0 mm
12 avril 20:10 17.1°C 63% 0.0 km/h NNE 1027.6 hPa 0 mm
12 avril 20:09 17.1°C 63% 0.0 km/h NNE 1027.5 hPa 0 mm
12 avril 20:08 17.1°C 63% 0.0 km/h NE 1027.5 hPa 0 mm
12 avril 20:07 17.1°C 63% 0.0 km/h NE 1027.5 hPa 0 mm
12 avril 20:06 17.1°C 63% 0.0 km/h NNE 1027.5 hPa 0 mm
12 avril 20:05 17.1°C 63% 0.0 km/h NE 1027.5 hPa 0 mm
12 avril 20:04 17.1°C 63% 0.0 km/h ENE 1027.5 hPa 0 mm
12 avril 20:03 17.2°C 63% 0.0 km/h NNE 1027.6 hPa 0 mm
12 avril 20:02 17.3°C 63% 0.0 km/h NE 1027.7 hPa 0 mm
12 avril 20:01 17.4°C 63% 0.0 km/h NNE 1027.7 hPa 0 mm
12 avril 20:00 17.4°C 63% 0.0 km/h ENE 1027.6 hPa 0 mm
12 avril 19:59 17.5°C 62% 0.0 km/h NE 1027.6 hPa 0 mm
12 avril 19:58 17.5°C 62% 0.0 km/h N 1027.6 hPa 0 mm
12 avril 19:57 17.7°C 62% 0.0 km/h E 1027.7 hPa 0 mm
12 avril 19:56 17.7°C 61% 0.0 km/h N 1027.6 hPa 0 mm
12 avril 19:55 17.8°C 60% 0.0 km/h NE 1027.6 hPa 0 mm
12 avril 19:54 17.8°C 61% 0.0 km/h NNE 1027.5 hPa 0 mm
12 avril 19:53 18.0°C 60% 0.0 km/h NNE 1027.6 hPa 0 mm
12 avril 19:52 18.0°C 60% 0.0 km/h NE 1027.5 hPa 0 mm
12 avril 19:51 18.0°C 60% 0.0 km/h NNE 1027.4 hPa 0 mm
12 avril 19:50 18.0°C 60% 0.0 km/h NE 1027.5 hPa 0 mm
12 avril 19:49 18.2°C 59% 0.0 km/h E 1027.6 hPa 0 mm
12 avril 19:48 18.2°C 59% 0.0 km/h N 1027.4 hPa 0 mm
12 avril 19:47 18.2°C 59% 0.0 km/h NNE 1027.4 hPa 0 mm
12 avril 19:46 18.2°C 58% 0.0 km/h NE 1027.4 hPa 0 mm
12 avril 19:45 18.2°C 58% 0.0 km/h NE 1027.4 hPa 0 mm
12 avril 19:44 18.2°C 58% 0.0 km/h NNE 1027.4 hPa 0 mm
12 avril 19:43 18.2°C 58% 0.0 km/h NE 1027.4 hPa 0 mm
12 avril 19:42 18.3°C 58% 0.0 km/h ENE 1027.4 hPa 0 mm
12 avril 19:41 18.3°C 58% 0.0 km/h NE 1027.4 hPa 0 mm
12 avril 19:40 18.3°C 58% 0.0 km/h NE 1027.4 hPa 0 mm
12 avril 19:39 18.3°C 58% 0.0 km/h N 1027.4 hPa 0 mm
12 avril 19:38 18.4°C 58% 0.0 km/h NE 1027.4 hPa 0 mm
12 avril 19:37 18.5°C 58% 0.0 km/h NE 1027.4 hPa 0 mm
12 avril 19:36 18.5°C 58% 0.0 km/h NNE 1027.4 hPa 0 mm
12 avril 19:35 18.6°C 59% 0.0 km/h E 1027.4 hPa 0 mm
12 avril 19:34 18.6°C 59% 0.0 km/h NE 1027.4 hPa 0 mm
12 avril 19:33 18.9°C 59% 0.0 km/h NNE 1027.5 hPa 0 mm
12 avril 19:32 18.9°C 59% 0.0 km/h ENE 1027.5 hPa 0 mm
12 avril 19:31 18.9°C 57% 0.0 km/h NNE 1027.5 hPa 0 mm
12 avril 19:30 19.0°C 57% 0.0 km/h N 1027.5 hPa 0 mm
12 avril 19:29 19.0°C 57% 0.0 km/h NE 1027.5 hPa 0 mm
12 avril 19:28 19.0°C 57% 0.0 km/h NNE 1027.4 hPa 0 mm
12 avril 19:27 19.0°C 57% 0.0 km/h NNE 1027.4 hPa 0 mm
12 avril 19:26 19.0°C 57% 0.0 km/h N 1027.4 hPa 0 mm
12 avril 19:25 19.0°C 56% 0.0 km/h NE 1027.4 hPa 0 mm
12 avril 19:24 19.0°C 57% 0.0 km/h NNE 1027.4 hPa 0 mm
12 avril 19:23 19.0°C 57% 0.0 km/h NNE 1027.4 hPa 0 mm
12 avril 19:22 19.0°C 58% 0.0 km/h NNE 1027.4 hPa 0 mm
12 avril 19:21 19.0°C 58% 0.0 km/h N 1027.6 hPa 0 mm
12 avril 19:20 19.1°C 57% 0.0 km/h NNE 1027.6 hPa 0 mm
12 avril 19:19 19.1°C 57% 0.0 km/h NNE 1027.6 hPa 0 mm
12 avril 19:18 19.1°C 57% 0.0 km/h ESE 1027.4 hPa 0 mm
12